Observation data for Romero 11SSW on 11/11/2019      Previous  Date       Current Mesonet Observations  Soil Data  Daily Summary Page  Observations in Plain Language
KBR1 110600Z 02017KT 07/M03 A2994 RMK A01 T00701025  RH  051%=      5-min Rain = 0
KBR1 110601Z 02016KT 07/M03 A2994 RMK A01 T00691025  RH  051%=      5-min Rain = 0
KBR1 110602Z 01017KT 07/M02 A2994 RMK A01 T00691024  RH  051%=      5-min Rain = 0
KBR1 110603Z 02016KT 07/M02 A2995 RMK A01 T00701023  RH  052%=      5-min Rain = 0
KBR1 110604Z 02017KT 07/M02 A2995 RMK A01 T00691023  RH  052%=      5-min Rain = 0
KBR1 110605Z 02018KT 07/M02 A2995 RMK A01 T00691023  RH  052%=      5-min Rain = 0
KBR1 110606Z 02017KT 07/M02 A2995 RMK A01 T00681022  RH  052%=      5-min Rain = 0
KBR1 110607Z 02016KT 07/M02 A2995 RMK A01 T00681022  RH  053%=      5-min Rain = 0
KBR1 110608Z 01017KT 07/M02 A2995 RMK A01 T00681022  RH  053%=      5-min Rain = 0
KBR1 110609Z 01017KT 07/M02 A2995 RMK A01 T00671021  RH  053%=      5-min Rain = 0
KBR1 110610Z 02017KT 07/M02 A2995 RMK A01 T00671021  RH  053%=      5-min Rain = 0
KBR1 110611Z 02018KT 07/M02 A2995 RMK A01 T00671020  RH  054%=      5-min Rain = 0
KBR1 110612Z 01017KT 07/M02 A2995 RMK A01 T00671020  RH  054%=      5-min Rain = 0
KBR1 110613Z 02016KT 07/M02 A2995 RMK A01 T00671019  RH  054%=      5-min Rain = 0
KBR1 110614Z 02016KT 07/M02 A2995 RMK A01 T00671019  RH  054%=      5-min Rain = 0
KBR1 110615Z 02015KT 07/M02 A2995 RMK A01 T00661019  RH  055%=      5-min Rain = 0
KBR1 110616Z 01016KT 07/M02 A2995 RMK A01 T00661019  RH  055%=      5-min Rain = 0
KBR1 110617Z 01015KT 07/M02 A2995 RMK A01 T00651019  RH  055%=      5-min Rain = 0
KBR1 110618Z 01016KT 07/M02 A2995 RMK A01 T00651018  RH  055%=      5-min Rain = 0
KBR1 110619Z 01016KT 07/M02 A2995 RMK A01 T00651018  RH  055%=      5-min Rain = 0
KBR1 110620Z 01016G21KT 07/M02 A2995 RMK A01 T00651018  RH  055%=      5-min Rain = 0
KBR1 110621Z 02019KT 07/M02 A2995 RMK A01 T00651018  RH  055%=      5-min Rain = 0
KBR1 110622Z 02016KT 07/M02 A2995 RMK A01 T00651018  RH  055%=      5-min Rain = 0
KBR1 110623Z 01018KT 07/M02 A2995 RMK A01 T00651018  RH  055%=      5-min Rain = 0
KBR1 110624Z 01019KT 07/M02 A2995 RMK A01 T00651017  RH  056%=      5-min Rain = 0
KBR1 110625Z 02016KT 07/M02 A2995 RMK A01 T00651017  RH  056%=      5-min Rain = 0
KBR1 110626Z 02017KT 06/M02 A2995 RMK A01 T00641018  RH  056%=      5-min Rain = 0
KBR1 110627Z 01017KT 06/M02 A2995 RMK A01 T00641018  RH  056%=      5-min Rain = 0
KBR1 110628Z 01016KT 06/M02 A2995 RMK A01 T00641017  RH  056%=      5-min Rain = 0
KBR1 110629Z 01018KT 06/M02 A2995 RMK A01 T00631017  RH  057%=      5-min Rain = 0
KBR1 110630Z 01017KT 06/M02 A2996 RMK A01 T00631017  RH  057%=      5-min Rain = 0
KBR1 110631Z 01019KT 06/M02 A2996 RMK A01 T00631016  RH  057%=      5-min Rain = 0
KBR1 110632Z 01017KT 06/M02 A2996 RMK A01 T00631016  RH  057%=      5-min Rain = 0
KBR1 110633Z 01017KT 06/M02 A2996 RMK A01 T00621016  RH  057%=      5-min Rain = 0
KBR1 110634Z 02017KT 06/M02 A2996 RMK A01 T00621015  RH  058%=      5-min Rain = 0
KBR1 110635Z 01017KT 06/M02 A2996 RMK A01 T00621015  RH  058%=      5-min Rain = 0
KBR1 110636Z 01016KT 06/M02 A2996 RMK A01 T00611015  RH  058%=      5-min Rain = 0
KBR1 110637Z 02016KT 06/M02 A2996 RMK A01 T00601015  RH  058%=      5-min Rain = 0
KBR1 110638Z 01016KT 06/M02 A2996 RMK A01 T00601015  RH  058%=      5-min Rain = 0
KBR1 110639Z 01017KT 06/M02 A2996 RMK A01 T00601015  RH  059%=      5-min Rain = 0
KBR1 110640Z 01016G21KT 06/M02 A2996 RMK A01 T00591015  RH  059%=      5-min Rain = 0
KBR1 110641Z 01018KT 06/M02 A2996 RMK A01 T00591015  RH  059%=      5-min Rain = 0
KBR1 110642Z 01019G25KT 06/M01 A2996 RMK A01 T00591014  RH  059%=      5-min Rain = 0
KBR1 110643Z 02018KT 06/M01 A2996 RMK A01 T00591014  RH  059%=      5-min Rain = 0
KBR1 110644Z 02019G24KT 06/M01 A2997 RMK A01 T00591014  RH  059%=      5-min Rain = 0
KBR1 110645Z 01019G24KT 06/M01 A2996 RMK A01 T00591014  RH  059%=      5-min Rain = 0
KBR1 110646Z 02019KT 06/M01 A2997 RMK A01 T00591014  RH  060%=      5-min Rain = 0
KBR1 110647Z 02017KT 06/M01 A2997 RMK A01 T00591013  RH  060%=      5-min Rain = 0
KBR1 110648Z 02019KT 06/M01 A2997 RMK A01 T00591013  RH  060%=      5-min Rain = 0
KBR1 110649Z 02017KT 06/M01 A2997 RMK A01 T00581013  RH  060%=      5-min Rain = 0
KBR1 110650Z 01018KT 06/M01 A2997 RMK A01 T00591013  RH  060%=      5-min Rain = 0
KBR1 110651Z 02017KT 06/M01 A2997 RMK A01 T00581013  RH  060%=      5-min Rain = 0
KBR1 110652Z 01018KT 06/M01 A2997 RMK A01 T00591012  RH  060%=      5-min Rain = 0
KBR1 110653Z 02017KT 06/M01 A2997 RMK A01 T00591012  RH  060%=      5-min Rain = 0
KBR1 110654Z 02016KT 06/M01 A2998 RMK A01 T00581012  RH  060%=      5-min Rain = 0
KBR1 110655Z 02015KT 06/M01 A2998 RMK A01 T00581013  RH  061%=      5-min Rain = 0
KBR1 110656Z 02015G21KT 06/M01 A2998 RMK A01 T00571013  RH  061%=      5-min Rain = 0
KBR1 110657Z 02017G24KT 06/M01 A2998 RMK A01 T00571012  RH  061%=      5-min Rain = 0
KBR1 110658Z 02018KT 06/M01 A2998 RMK A01 T00571012  RH  062%=      5-min Rain = 0
KBR1 110659Z 02015G20KT 06/M01 A2998 RMK A01 T00571011  RH  061%=      5-min Rain = 0
KBR1 110700Z 02015KT 06/M01 A2998 RMK A01 T00571011  RH  062%=      5-min Rain = 0
KBR1 110701Z 02016KT 06/M01 A2998 RMK A01 T00561011  RH  062%=      5-min Rain = 0
KBR1 110702Z 02016KT 06/M01 A2999 RMK A01 T00561011  RH  062%=      5-min Rain = 0
KBR1 110703Z 02015KT 06/M01 A2999 RMK A01 T00561011  RH  062%=      5-min Rain = 0
KBR1 110704Z 02016KT 06/M01 A2999 RMK A01 T00561011  RH  062%=      5-min Rain = 0
KBR1 110705Z 02018KT 06/M01 A2999 RMK A01 T00561010  RH  062%=      5-min Rain = 0
KBR1 110706Z 01014KT 06/M01 A2999 RMK A01 T00561010  RH  062%=      5-min Rain = 0
KBR1 110707Z 02014KT 06/M01 A2999 RMK A01 T00551011  RH  062%=      5-min Rain = 0
KBR1 110708Z 02017KT 06/M01 A2999 RMK A01 T00551011  RH  063%=      5-min Rain = 0
KBR1 110709Z 01015KT 05/M01 A2999 RMK A01 T00541011  RH  063%=      5-min Rain = 0
KBR1 110710Z 02015KT 05/M01 A2999 RMK A01 T00541011  RH  063%=      5-min Rain = 0
KBR1 110711Z 01016KT 05/M01 A2999 RMK A01 T00541010  RH  063%=      5-min Rain = 0
KBR1 110712Z 02015KT 05/M01 A30 RMK A01 T00541010  RH  063%=      5-min Rain = 0
KBR1 110713Z 02016KT 05/M01 A2999 RMK A01 T00541010  RH  063%=      5-min Rain = 0
KBR1 110714Z 02017KT 05/M01 A2999 RMK A01 T00531010  RH  064%=      5-min Rain = 0
KBR1 110715Z 02017KT 05/M01 A30 RMK A01 T00531010  RH  064%=      5-min Rain = 0
KBR1 110716Z 02017KT 05/M01 A30 RMK A01 T00531010  RH  064%=      5-min Rain = 0
KBR1 110717Z 02017KT 05/M01 A30 RMK A01 T00531010  RH  064%=      5-min Rain = 0
KBR1 110718Z 01015KT 05/M01 A30 RMK A01 T00531010  RH  064%=      5-min Rain = 0
KBR1 110719Z 01013KT 05/M01 A30 RMK A01 T00531010  RH  064%=      5-min Rain = 0
KBR1 110720Z 01017KT 05/M01 A30 RMK A01 T00521010  RH  064%=      5-min Rain = 0
KBR1 110721Z 01016KT 05/M01 A30 RMK A01 T00521010  RH  064%=      5-min Rain = 0
KBR1 110722Z 01014G21KT 05/M01 A30 RMK A01 T00521010  RH  064%=      5-min Rain = 0
KBR1 110723Z 01016KT 05/M01 A30 RMK A01 T00511010  RH  064%=      5-min Rain = 0
KBR1 110724Z 01017KT 05/M01 A30 RMK A01 T00511010  RH  065%=      5-min Rain = 0
KBR1 110725Z 01016G21KT 05/M01 A30 RMK A01 T00511010  RH  065%=      5-min Rain = 0
KBR1 110726Z 01018KT 05/M01 A3001 RMK A01 T00511010  RH  065%=      5-min Rain = 0
KBR1 110727Z 01018KT 05/M01 A3001 RMK A01 T00511009  RH  065%=      5-min Rain = 0
KBR1 110728Z 02016KT 05/M01 A3001 RMK A01 T00511009  RH  065%=      5-min Rain = 0
KBR1 110729Z 01017KT 05/M01 A3001 RMK A01 T00511009  RH  065%=      5-min Rain = 0
KBR1 110730Z 02016KT 05/M01 A3001 RMK A01 T00501009  RH  066%=      5-min Rain = 0
KBR1 110731Z 01016KT 05/M01 A3001 RMK A01 T00491009  RH  066%=      5-min Rain = 0
KBR1 110732Z 02017KT 05/M01 A3001 RMK A01 T00491009  RH  066%=      5-min Rain = 0
KBR1 110733Z 01016KT 05/M01 A3001 RMK A01 T00491008  RH  066%=      5-min Rain = 0
KBR1 110734Z 02016KT 05/M01 A3001 RMK A01 T00491009  RH  066%=      5-min Rain = 0
KBR1 110735Z 01016KT 05/M01 A3001 RMK A01 T00491008  RH  067%=      5-min Rain = 0
KBR1 110736Z 02015KT 05/M01 A3001 RMK A01 T00481008  RH  067%=      5-min Rain = 0
KBR1 110737Z 01017KT 05/M01 A3001 RMK A01 T00481009  RH  067%=      5-min Rain = 0
KBR1 110738Z 01018KT 05/M01 A3001 RMK A01 T00481008  RH  067%=      5-min Rain = 0
KBR1 110739Z 01017KT 05/M01 A3001 RMK A01 T00481008  RH  067%=      5-min Rain = 0
KBR1 110740Z 01016KT 05/M01 A3001 RMK A01 T00481008  RH  067%=      5-min Rain = 0
KBR1 110741Z 01018KT 05/M01 A3001 RMK A01 T00481009  RH  067%=      5-min Rain = 0
KBR1 110742Z 01016G21KT 05/M01 A3001 RMK A01 T00481008  RH  067%=      5-min Rain = 0
KBR1 110743Z 01018G23KT 05/M01 A3002 RMK A01 T00471008  RH  067%=      5-min Rain = 0
KBR1 110744Z 01018KT 05/M01 A3002 RMK A01 T00471008  RH  067%=      5-min Rain = 0
KBR1 110745Z 01016KT 05/M01 A3002 RMK A01 T00471008  RH  068%=      5-min Rain = 0
KBR1 110746Z 02016KT 05/M01 A3002 RMK A01 T00471008  RH  068%=      5-min Rain = 0
KBR1 110747Z 02016KT 05/M01 A3002 RMK A01 T00461008  RH  068%=      5-min Rain = 0
KBR1 110748Z 02018KT 05/M01 A3002 RMK A01 T00461008  RH  068%=      5-min Rain = 0
KBR1 110749Z 02016KT 05/M01 A3002 RMK A01 T00461008  RH  068%=      5-min Rain = 0
KBR1 110750Z 02015KT 05/M01 A3002 RMK A01 T00461008  RH  068%=      5-min Rain = 0
KBR1 110751Z 02015G22KT 05/M01 A3002 RMK A01 T00451008  RH  068%=      5-min Rain = 0
KBR1 110752Z 01016KT 05/M01 A3003 RMK A01 T00451008  RH  069%=      5-min Rain = 0
KBR1 110753Z 01015KT 05/M01 A3003 RMK A01 T00451007  RH  069%=      5-min Rain = 0
KBR1 110754Z 01016KT 04/M01 A3003 RMK A01 T00441008  RH  069%=      5-min Rain = 0
KBR1 110755Z 01014KT 04/M01 A3003 RMK A01 T00441007  RH  069%=      5-min Rain = 0
KBR1 110756Z 02017KT 04/M01 A3003 RMK A01 T00441008  RH  069%=      5-min Rain = 0
KBR1 110757Z 01016KT 04/M01 A3003 RMK A01 T00431007  RH  070%=      5-min Rain = 0
KBR1 110758Z 02013KT 04/M01 A3003 RMK A01 T00431008  RH  070%=      5-min Rain = 0
KBR1 110759Z 01014KT 04/M01 A3003 RMK A01 T00431008  RH  070%=      5-min Rain = 0
KBR1 110800Z 01013KT 04/M01 A3004 RMK A01 T00431008  RH  070%=      5-min Rain = 0
KBR1 110801Z 01014KT 04/M01 A3003 RMK A01 T00421008  RH  070%=      5-min Rain = 0
KBR1 110802Z 01017KT 04/M01 A3004 RMK A01 T00421007  RH  070%=      5-min Rain = 0
KBR1 110803Z 01016KT 04/M01 A3003 RMK A01 T00421007  RH  070%=      5-min Rain = 0
KBR1 110804Z 02017KT 04/M01 A3003 RMK A01 T00421007  RH  070%=      5-min Rain = 0
KBR1 110805Z 02016KT 04/M01 A3003 RMK A01 T00421007  RH  070%=      5-min Rain = 0
KBR1 110806Z 02020KT 04/M01 A3003 RMK A01 T00411007  RH  071%=      5-min Rain = 0
KBR1 110807Z 02019KT 04/M01 A3003 RMK A01 T00411006  RH  071%=      5-min Rain = 0
KBR1 110808Z 02020KT 04/M01 A3003 RMK A01 T00411006  RH  071%=      5-min Rain = 0
KBR1 110809Z 02020KT 04/M01 A3003 RMK A01 T00411006  RH  071%=      5-min Rain = 0
KBR1 110810Z 01020G25KT 04/M01 A3003 RMK A01 T00411006  RH  071%=      5-min Rain = 0
KBR1 110811Z 02019KT 04/M01 A3003 RMK A01 T00411006  RH  072%=      5-min Rain = 0
KBR1 110812Z 02020G25KT 04/M01 A3003 RMK A01 T00411005  RH  072%=      5-min Rain = 0
KBR1 110813Z 02018G23KT 04/M01 A3003 RMK A01 T00401006  RH  072%=      5-min Rain = 0
KBR1 110814Z 02020KT 04/M01 A3003 RMK A01 T00401006  RH  072%=      5-min Rain = 0
KBR1 110815Z 02018KT 04/M01 A3003 RMK A01 T00391006  RH  073%=      5-min Rain = 0
KBR1 110816Z 02018KT 04/M01 A3004 RMK A01 T00391006  RH  073%=      5-min Rain = 0
KBR1 110817Z 02017KT 04/M01 A3004 RMK A01 T00391006  RH  073%=      5-min Rain = 0
KBR1 110818Z 02020KT 04/M01 A3004 RMK A01 T00381006  RH  073%=      5-min Rain = 0
KBR1 110819Z 02017KT 04/M01 A3004 RMK A01 T00381006  RH  073%=      5-min Rain = 0
KBR1 110820Z 02017KT 04/M01 A3004 RMK A01 T00381006  RH  073%=      5-min Rain = 0
KBR1 110821Z 02017KT 04/M01 A3004 RMK A01 T00381006  RH  073%=      5-min Rain = 0
KBR1 110822Z 02020KT 04/M01 A3004 RMK A01 T00371006  RH  073%=      5-min Rain = 0
KBR1 110823Z 01017KT 04/M01 A3004 RMK A01 T00371006  RH  073%=      5-min Rain = 0
KBR1 110824Z 01016KT 04/M01 A3004 RMK A01 T00371007  RH  073%=      5-min Rain = 0
KBR1 110825Z 01016G21KT 04/M01 A3004 RMK A01 T00361007  RH  073%=      5-min Rain = 0
KBR1 110826Z 01021KT 04/M01 A3004 RMK A01 T00361007  RH  074%=      5-min Rain = 0
KBR1 110827Z 02020KT 04/M01 A3004 RMK A01 T00361007  RH  074%=      5-min Rain = 0
KBR1 110828Z 02021KT 04/M01 A3004 RMK A01 T00361007  RH  074%=      5-min Rain = 0
KBR1 110829Z 02023G29KT 04/M01 A3004 RMK A01 T00361006  RH  074%=      5-min Rain = 0
KBR1 110830Z 02022KT 04/M01 A3005 RMK A01 T00361006  RH  074%=      5-min Rain = 0
KBR1 110831Z 02020G25KT 04/M01 A3005 RMK A01 T00351006  RH  074%=      5-min Rain = 0
KBR1 110832Z 02022G28KT 04/M01 A3005 RMK A01 T00351006  RH  075%=      5-min Rain = 0
KBR1 110833Z 02022KT 04/M01 A3005 RMK A01 T00351006  RH  075%=      5-min Rain = 0
KBR1 110834Z 02016KT 04/M01 A3005 RMK A01 T00351005  RH  075%=      5-min Rain = 0
KBR1 110835Z 02019KT 03/M01 A3006 RMK A01 T00341006  RH  075%=      5-min Rain = 0
KBR1 110836Z 02020KT 03/M01 A3006 RMK A01 T00331005  RH  076%=      5-min Rain = 0
KBR1 110837Z 02018KT 03/M01 A3006 RMK A01 T00331006  RH  076%=      5-min Rain = 0
KBR1 110838Z 02018KT 03/M01 A3006 RMK A01 T00331006  RH  076%=      5-min Rain = 0
KBR1 110839Z 02018KT 03/M01 A3006 RMK A01 T00321006  RH  076%=      5-min Rain = 0
KBR1 110840Z 02017KT 03/M01 A3006 RMK A01 T00321006  RH  076%=      5-min Rain = 0
KBR1 110841Z 02017KT 03/M01 A3006 RMK A01 T00321006  RH  076%=      5-min Rain = 0
KBR1 110842Z 02018KT 03/M01 A3007 RMK A01 T00321006  RH  076%=      5-min Rain = 0
KBR1 110843Z 02018G24KT 03/M01 A3007 RMK A01 T00311006  RH  077%=      5-min Rain = 0
KBR1 110844Z 02020G26KT 03/M01 A3007 RMK A01 T00311006  RH  077%=      5-min Rain = 0
KBR1 110845Z 02023G28KT 03/M01 A3007 RMK A01 T00311006  RH  077%=      5-min Rain = 0
KBR1 110846Z 02023KT 03/M01 A3007 RMK A01 T00321005  RH  077%=      5-min Rain = 0
KBR1 110847Z 02022KT 03/M01 A3007 RMK A01 T00321005  RH  077%=      5-min Rain = 0
KBR1 110848Z 02019G26KT 03/M00 A3007 RMK A01 T00331004  RH  077%=      5-min Rain = 0
KBR1 110849Z 02016KT 03/M01 A3007 RMK A01 T00331005  RH  076%=      5-min Rain = 0
KBR1 110850Z 02020KT 03/M01 A3007 RMK A01 T00331005  RH  076%=      5-min Rain = 0
KBR1 110851Z 02022G27KT 03/M00 A3007 RMK A01 T00331004  RH  076%=      5-min Rain = 0
KBR1 110852Z 02023KT 03/M01 A3007 RMK A01 T00331005  RH  076%=      5-min Rain = 0
KBR1 110853Z 02022G27KT 03/M00 A3007 RMK A01 T00331004  RH  076%=      5-min Rain = 0
KBR1 110854Z 02020KT 03/M01 A3008 RMK A01 T00331005  RH  076%=      5-min Rain = 0
KBR1 110855Z 03023G28KT 03/M01 A3008 RMK A01 T00331005  RH  076%=      5-min Rain = 0
KBR1 110856Z 02024G29KT 03/M00 A3008 RMK A01 T00341004  RH  076%=      5-min Rain = 0
KBR1 110857Z 02023KT 03/M00 A3008 RMK A01 T00341004  RH  076%=      5-min Rain = 0
KBR1 110858Z 02025G30KT 03/M01 A3008 RMK A01 T00341005  RH  076%=      5-min Rain = 0
KBR1 110859Z 02025G33KT 03/M00 A3008 RMK A01 T00341004  RH  076%=      5-min Rain = 0
KBR1 110900Z 03026G31KT 03/M01 A3008 RMK A01 T00331005  RH  076%=      5-min Rain = 0
KBR1 110901Z 02022G28KT 03/M00 A3008 RMK A01 T00331004  RH  076%=      5-min Rain = 0
KBR1 110902Z 02027G32KT 03/M00 A3008 RMK A01 T00331004  RH  077%=      5-min Rain = 0
KBR1 110903Z 02023KT 03/M00 A3008 RMK A01 T00331004  RH  077%=      5-min Rain = 0
KBR1 110904Z 02027G32KT 03/M00 A3008 RMK A01 T00331004  RH  077%=      5-min Rain = 0
KBR1 110905Z 02026KT 03/M00 A3008 RMK A01 T00331004  RH  077%=      5-min Rain = 0
KBR1 110906Z 02022KT 03/M00 A3008 RMK A01 T00321004  RH  077%=      5-min Rain = 0
KBR1 110907Z 02021G27KT 03/M00 A3009 RMK A01 T00321004  RH  077%=      5-min Rain = 0
KBR1 110908Z 02027G33KT 03/M00 A3008 RMK A01 T00321004  RH  077%=      5-min Rain = 0
KBR1 110909Z 02025G30KT 03/M00 A3008 RMK A01 T00321004  RH  077%=      5-min Rain = 0
KBR1 110910Z 03026KT 03/M00 A3008 RMK A01 T00321004  RH  077%=      5-min Rain = 0
KBR1 110911Z 02023G28KT 03/M00 A3009 RMK A01 T00321004  RH  077%=      5-min Rain = 0
KBR1 110912Z 02023G30KT 03/M00 A3009 RMK A01 T00321004  RH  077%=      5-min Rain = 0
KBR1 110913Z 02024KT 03/M00 A3009 RMK A01 T00321004  RH  077%=      5-min Rain = 0
KBR1 110914Z 02024G32KT 03/M00 A3009 RMK A01 T00311004  RH  077%=      5-min Rain = 0
KBR1 110915Z 02026G31KT 03/M01 A3009 RMK A01 T00311005  RH  077%=      5-min Rain = 0
KBR1 110916Z 02027G33KT 03/M00 A3009 RMK A01 T00311004  RH  078%=      5-min Rain = 0
KBR1 110917Z 02030KT 03/M00 A3009 RMK A01 T00301004  RH  078%=      5-min Rain = 0
KBR1 110918Z 02032G37KT 03/M00 A3009 RMK A01 T00291003  RH  079%=      5-min Rain = 0
KBR1 110919Z 03026KT 03/M00 A3009 RMK A01 T00281004  RH  080%=      5-min Rain = 0
KBR1 110920Z 03025G32KT 03/M00 A3009 RMK A01 T00281004  RH  080%=      5-min Rain = 0
KBR1 110921Z 02032G39KT 03/M00 A3009 RMK A01 T00271003  RH  080%=      5-min Rain = 0
KBR1 110922Z 02033G39KT 03/M00 A3009 RMK A01 T00261002  RH  082%=      5-min Rain = 0
KBR1 110923Z 02030G37KT 02/M00 A3009 RMK A01 T00241001  RH  083%=      5-min Rain = 0
KBR1 110924Z 02028G35KT 02/M00 A301 RMK A01 T00241001  RH  083%=      5-min Rain = 0
KBR1 110925Z 03026G31KT 02/M00 A301 RMK A01 T00241002  RH  083%=      5-min Rain = 0
KBR1 110926Z 02028KT 02/M00 A301 RMK A01 T00241002  RH  083%=      5-min Rain = 0
KBR1 110927Z 03029G37KT 02/M00 A301 RMK A01 T00241002  RH  083%=      5-min Rain = 0
KBR1 110928Z 02028G33KT 02/M00 A301 RMK A01 T00241003  RH  082%=      5-min Rain = 0
KBR1 110929Z 03023G31KT 02/M00 A3011 RMK A01 T00241003  RH  082%=      5-min Rain = 0
KBR1 110930Z 02022G31KT 03/M00 A3011 RMK A01 T00251003  RH  082%=      5-min Rain = 0
KBR1 110931Z 02027KT 03/M00 A3011 RMK A01 T00251003  RH  082%=      5-min Rain = 0
KBR1 110932Z 02026KT 03/M00 A3011 RMK A01 T00251004  RH  081%=      5-min Rain = 0
KBR1 110933Z 02024G30KT 03/M00 A3011 RMK A01 T00251004  RH  081%=      5-min Rain = 0
KBR1 110934Z 02028G33KT 03/M00 A3011 RMK A01 T00261004  RH  081%=      5-min Rain = 0
KBR1 110935Z 02024G29KT 03/M01 A3012 RMK A01 T00261005  RH  080%=      5-min Rain = 0
KBR1 110936Z 02028G36KT 03/M01 A3012 RMK A01 T00261005  RH  080%=      5-min Rain = 0
KBR1 110937Z 02029KT 03/M01 A3012 RMK A01 T00261005  RH  080%=      5-min Rain = 0
KBR1 110938Z 02027G32KT 03/M01 A3012 RMK A01 T00251006  RH  080%=      5-min Rain = 0
KBR1 110939Z 01026G35KT 02/M01 A3013 RMK A01 T00241007  RH  080%=      5-min Rain = 0
KBR1 110940Z 02026KT 02/M01 A3013 RMK A01 T00231007  RH  081%=      5-min Rain = 0
KBR1 110941Z 02030G38KT 02/M01 A3012 RMK A01 T00221006  RH  082%=      5-min Rain = 0
KBR1 110942Z 03027G32KT 02/M01 A3012 RMK A01 T00201006  RH  083%=      5-min Rain = 0
KBR1 110943Z 02024KT 02/M01 A3013 RMK A01 T00201006  RH  083%=      5-min Rain = 0
KBR1 110944Z 02023KT 02/M01 A3013 RMK A01 T00191006  RH  083%=      5-min Rain = 0
KBR1 110945Z 02025G30KT 02/M01 A3013 RMK A01 T00191007  RH  083%=      5-min Rain = 0
KBR1 110946Z 02031G36KT 02/M01 A3013 RMK A01 T00191007  RH  083%=      5-min Rain = 0
KBR1 110947Z 02024G32KT 02/M01 A3013 RMK A01 T00191007  RH  083%=      5-min Rain = 0
KBR1 110948Z 02028G36KT 02/M01 A3013 RMK A01 T00191007  RH  083%=      5-min Rain = 0
KBR1 110949Z 02028KT 02/M01 A3013 RMK A01 T00191008  RH  082%=      5-min Rain = 0
KBR1 110950Z 02022G33KT 02/M01 A3013 RMK A01 T00201008  RH  082%=      5-min Rain = 0
KBR1 110951Z 02030G35KT 02/M01 A3013 RMK A01 T00191008  RH  082%=      5-min Rain = 0
KBR1 110952Z 02025KT 02/M01 A3014 RMK A01 T00201008  RH  082%=      5-min Rain = 0
KBR1 110953Z 02028G33KT 02/M01 A3014 RMK A01 T00201008  RH  082%=      5-min Rain = 0
KBR1 110954Z 02031G38KT 02/M01 A3013 RMK A01 T00201009  RH  082%=      5-min Rain = 0
KBR1 110955Z 02034KT 02/M01 A3014 RMK A01 T00181010  RH  082%=      5-min Rain = 0
KBR1 110956Z 02031G36KT 02/M01 A3014 RMK A01 T00161011  RH  082%=      5-min Rain = 0
KBR1 110957Z 02026G33KT 02/M01 A3014 RMK A01 T00151011  RH  083%=      5-min Rain = 0
KBR1 110958Z 01032G38KT 01/M01 A3015 RMK A01 T00141011  RH  084%=      5-min Rain = 0
KBR1 110959Z 02028G34KT 01/M01 A3015 RMK A01 T00131010  RH  084%=      5-min Rain = 0
KBR1 111000Z 02030G38KT 01/M01 A3015 RMK A01 T00121010  RH  085%=      5-min Rain = 0
KBR1 111001Z 02029G34KT 01/M01 A3015 RMK A01 T00121010  RH  086%=      5-min Rain = 0
KBR1 111002Z 01029G34KT 01/M01 A3015 RMK A01 T00111009  RH  087%=      5-min Rain = 0
KBR1 111003Z 02023KT 01/M01 A3015 RMK A01 T00101009  RH  087%=      5-min Rain = 0
KBR1 111004Z 01025KT 01/M01 A3015 RMK A01 T00101008  RH  088%=      5-min Rain = 0
KBR1 111005Z 02028G33KT 01/M01 A3015 RMK A01 T00101008  RH  088%=      5-min Rain = 0
KBR1 111006Z 02031G37KT 01/M01 A3015 RMK A01 T00101008  RH  088%=      5-min Rain = 0
KBR1 111007Z 02027G33KT 01/M01 A3015 RMK A01 T00101008  RH  088%=      5-min Rain = 0
KBR1 111008Z 02025G30KT 01/M01 A3015 RMK A01 T00091008  RH  088%=      5-min Rain = 0
KBR1 111009Z 02026G31KT 01/M01 A3015 RMK A01 T00101007  RH  089%=      5-min Rain = 0
KBR1 111010Z 02024G30KT 01/M01 A3015 RMK A01 T00101007  RH  089%=      5-min Rain = 0
KBR1 111011Z 02028G35KT 01/M01 A3015 RMK A01 T00101007  RH  089%=      5-min Rain = 0
KBR1 111012Z 02024KT 01/M01 A3016 RMK A01 T00101007  RH  089%=      5-min Rain = 0
KBR1 111013Z 02027G34KT 01/M01 A3015 RMK A01 T00101007  RH  089%=      5-min Rain = 0
KBR1 111014Z 02027G32KT 01/M01 A3016 RMK A01 T00101007  RH  088%=      5-min Rain = 0
KBR1 111015Z 02026KT 01/M01 A3016 RMK A01 T00101007  RH  088%=      5-min Rain = 0
KBR1 111016Z 02029KT 01/M01 A3016 RMK A01 T00101007  RH  088%=      5-min Rain = 0
KBR1 111017Z 02025G31KT 01/M01 A3016 RMK A01 T00101007  RH  088%=      5-min Rain = 0
KBR1 111018Z 02028G38KT 01/M01 A3016 RMK A01 T00101007  RH  088%=      5-min Rain = 0
KBR1 111019Z 01034G40KT 01/M01 A3015 RMK A01 T00101008  RH  088%=      5-min Rain = 0
KBR1 111020Z 01033KT 01/M01 A3016 RMK A01 T00101008  RH  088%=      5-min Rain = 0
KBR1 111021Z 01031G38KT 01/M01 A3016 RMK A01 T00101008  RH  088%=      5-min Rain = 0
KBR1 111022Z 02033G38KT 01/M01 A3016 RMK A01 T00091008  RH  089%=      5-min Rain = 0
KBR1 111023Z 02026G31KT 01/M01 A3016 RMK A01 T00091008  RH  089%=      5-min Rain = 0
KBR1 111024Z 02029G34KT 01/M01 A3016 RMK A01 T00091007  RH  089%=      5-min Rain = 0
KBR1 111025Z 02031G36KT 01/M01 A3016 RMK A01 T00081007  RH  089%=      5-min Rain = 0
KBR1 111026Z 02030KT 01/M01 A3016 RMK A01 T00081008  RH  090%=      5-min Rain = 0
KBR1 111027Z 02031G38KT 01/M01 A3016 RMK A01 T00071008  RH  090%=      5-min Rain = 0
KBR1 111028Z 02029G35KT 01/M01 A3016 RMK A01 T00071008  RH  090%=      5-min Rain = 0
KBR1 111029Z 02029G37KT 01/M01 A3016 RMK A01 T00071008  RH  090%=      5-min Rain = 0
KBR1 111030Z 02030KT 01/M01 A3016 RMK A01 T00071008  RH  090%=      5-min Rain = 0
KBR1 111031Z 02025G32KT 01/M01 A3016 RMK A01 T00071008  RH  090%=      5-min Rain = 0
KBR1 111032Z 02021G27KT 01/M01 A3017 RMK A01 T00071007  RH  090%=      5-min Rain = 0
KBR1 111033Z 03024G30KT 01/M01 A3017 RMK A01 T00071007  RH  090%=      5-min Rain = 0
KBR1 111034Z 02025G30KT 01/M01 A3017 RMK A01 T00071007  RH  090%=      5-min Rain = 0
KBR1 111035Z 02025G30KT 01/M01 A3017 RMK A01 T00071007  RH  090%=      5-min Rain = 0
KBR1 111036Z 02024G30KT 01/M01 A3017 RMK A01 T00071007  RH  090%=      5-min Rain = 0
KBR1 111037Z 02023G32KT 01/M01 A3017 RMK A01 T00061007  RH  091%=      5-min Rain = 0
KBR1 111038Z 03026G32KT 01/M01 A3017 RMK A01 T00061007  RH  091%=      5-min Rain = 0
KBR1 111039Z 02028G35KT 01/M01 A3017 RMK A01 T00061007  RH  091%=      5-min Rain = 0
KBR1 111040Z 02028KT 01/M01 A3018 RMK A01 T00061007  RH  091%=      5-min Rain = 0
KBR1 111041Z 02029G34KT 01/M01 A3018 RMK A01 T00061007  RH  091%=      5-min Rain = 0
KBR1 111042Z 02025G32KT 01/M01 A3018 RMK A01 T00061008  RH  091%=      5-min Rain = 0
KBR1 111043Z 02024G29KT 01/M01 A3018 RMK A01 T00061008  RH  091%=      5-min Rain = 0
KBR1 111044Z 02020G26KT 01/M01 A3018 RMK A01 T00061007  RH  091%=      5-min Rain = 0
KBR1 111045Z 02026G31KT 01/M01 A3018 RMK A01 T00061007  RH  091%=      5-min Rain = 0
KBR1 111046Z 02024KT 01/M01 A3018 RMK A01 T00061007  RH  091%=      5-min Rain = 0
KBR1 111047Z 02025G32KT 01/M01 A3019 RMK A01 T00071006  RH  091%=      5-min Rain = 0
KBR1 111048Z 02025G33KT 01/M01 A3019 RMK A01 T00061007  RH  091%=      5-min Rain = 0
KBR1 111049Z 02025G30KT 01/M01 A3019 RMK A01 T00061007  RH  091%=      5-min Rain = 0
KBR1 111050Z 02027G32KT 01/M01 A3019 RMK A01 T00061007  RH  091%=      5-min Rain = 0
KBR1 111051Z 02026G32KT 01/M01 A3019 RMK A01 T00061007  RH  091%=      5-min Rain = 0
KBR1 111052Z 01030KT 01/M01 A3019 RMK A01 T00071007  RH  091%=      5-min Rain = 0
KBR1 111053Z 02024G29KT 01/M01 A3019 RMK A01 T00061007  RH  091%=      5-min Rain = 0
KBR1 111054Z 02023G28KT 01/M01 A3019 RMK A01 T00071006  RH  091%=      5-min Rain = 0
KBR1 111055Z 02024G29KT 01/M01 A3019 RMK A01 T00071006  RH  091%=      5-min Rain = 0
KBR1 111056Z 01027G36KT 01/M01 A302 RMK A01 T00061006  RH  092%=      5-min Rain = 0
KBR1 111057Z 02029G35KT 01/M01 A3019 RMK A01 T00061006  RH  092%=      5-min Rain = 0
KBR1 111058Z 01027G33KT 01/M01 A3019 RMK A01 T00061006  RH  091%=      5-min Rain = 0
KBR1 111059Z 02029G35KT 01/M01 A3019 RMK A01 T00061006  RH  091%=      5-min Rain = 0
KBR1 111100Z 02024KT 01/M01 A302 RMK A01 T00061006  RH  091%=      5-min Rain = 0
KBR1 111101Z 02020G26KT 01/M01 A302 RMK A01 T00061006  RH  092%=      5-min Rain = 0
KBR1 111102Z 02026G33KT 01/M01 A302 RMK A01 T00071005  RH  092%=      5-min Rain = 0
KBR1 111103Z 02027KT 01/M01 A302 RMK A01 T00061006  RH  092%=      5-min Rain = 0
KBR1 111104Z 02024G29KT 01/M01 A302 RMK A01 T00061006  RH  092%=      5-min Rain = 0
KBR1 111105Z 02020G25KT 01/M01 A302 RMK A01 T00051006  RH  092%=      5-min Rain = 0
KBR1 111106Z 02023KT 01/M01 A302 RMK A01 T00051005  RH  093%=      5-min Rain = 0
KBR1 111107Z 02026G33KT 01/M01 A302 RMK A01 T00051006  RH  092%=      5-min Rain = 0
KBR1 111108Z 02028G34KT 00/M01 A3021 RMK A01 T00041007  RH  092%=      5-min Rain = 0
KBR1 111109Z 02028G33KT 00/M01 A3021 RMK A01 T00041007  RH  092%=      5-min Rain = 0
KBR1 111110Z 02026G34KT 00/M01 A3021 RMK A01 T00041008  RH  092%=      5-min Rain = 0
KBR1 111111Z 02025G34KT 00/M01 A3021 RMK A01 T00041008  RH  091%=      5-min Rain = 0
KBR1 111112Z 02025G30KT 00/M01 A3021 RMK A01 T00041008  RH  091%=      5-min Rain = 0
KBR1 111113Z 02023G30KT 00/M01 A3021 RMK A01 T00041008  RH  092%=      5-min Rain = 0
KBR1 111114Z 02026KT 00/M01 A3021 RMK A01 T00041008  RH  092%=      5-min Rain = 0
KBR1 111115Z 02021KT 00/M01 A3021 RMK A01 T00041008  RH  092%=      5-min Rain = 0
KBR1 111116Z 02020G25KT 00/M01 A3021 RMK A01 T00041007  RH  092%=      5-min Rain = 0
KBR1 111117Z 02024G31KT 00/M01 A3021 RMK A01 T00031008  RH  092%=      5-min Rain = 0
KBR1 111118Z 03026G31KT 00/M01 A3021 RMK A01 T00031008  RH  092%=      5-min Rain = 0
KBR1 111119Z 02026G31KT 00/M01 A3021 RMK A01 T00031009  RH  092%=      5-min Rain = 0
KBR1 111120Z 02020G27KT 00/M01 A3021 RMK A01 T00031009  RH  092%=      5-min Rain = 0
KBR1 111121Z 02018G24KT 00/M01 A3021 RMK A01 T00031009  RH  092%=      5-min Rain = 0
KBR1 111122Z 03022G28KT 00/M01 A3022 RMK A01 T00031008  RH  093%=      5-min Rain = 0
KBR1 111123Z 03028KT 00/M01 A3021 RMK A01 T00021008  RH  093%=      5-min Rain = 0
KBR1 111124Z 02026KT 00/M01 A3021 RMK A01 T00021010  RH  092%=      5-min Rain = 0
KBR1 111125Z 02024G35KT 00/M01 A3022 RMK A01 T00021011  RH  092%=      5-min Rain = 0
KBR1 111126Z 03024G30KT 00/M01 A3021 RMK A01 T00011011  RH  091%=      5-min Rain = 0
KBR1 111127Z 03025G31KT 00/M01 A3022 RMK A01 T00011012  RH  091%=      5-min Rain = 0
KBR1 111128Z 03027G32KT 00/M01 A3021 RMK A01 T00011013  RH  091%=      5-min Rain = 0
KBR1 111129Z 02028KT 00/M01 A3021 RMK A01 T00011013  RH  090%=      5-min Rain = 0
KBR1 111130Z 02025G30KT 00/M01 A3022 RMK A01 T00011014  RH  090%=      5-min Rain = 0
KBR1 111131Z 03023KT 00/M01 A3022 RMK A01 T00011014  RH  090%=      5-min Rain = 0
KBR1 111132Z 02019KT 00/M01 A3022 RMK A01 T00011013  RH  090%=      5-min Rain = 0
KBR1 111133Z 03017KT 00/M01 A3022 RMK A01 T00011012  RH  091%=      5-min Rain = 0
KBR1 111134Z 03020G26KT 00/M01 A3022 RMK A01 T00011011  RH  091%=      5-min Rain = 0
KBR1 111135Z 03024KT 00/M01 A3022 RMK A01 T00011012  RH  091%=      5-min Rain = 0
KBR1 111136Z 02030G36KT 00/01 A3022 RMK A01 T00-00-13  RH  091%=      5-min Rain = 0
KBR1 111137Z 03025G30KT 00/02 A3022 RMK A01 T00-00-15  RH  090%=      5-min Rain = 0
KBR1 111138Z 03024G29KT 00/02 A3022 RMK A01 T00-00-15  RH  090%=      5-min Rain = 0
KBR1 111139Z 03025G32KT M00/M02 A3022 RMK A01 T10011016  RH  090%=      5-min Rain = 0
KBR1 111140Z 03024KT M00/M02 A3022 RMK A01 T10011016  RH  090%=      5-min Rain = 0
KBR1 111141Z 03024G30KT M00/M02 A3022 RMK A01 T10021017  RH  090%=      5-min Rain = 0
KBR1 111142Z 03022G30KT M00/M02 A3023 RMK A01 T10021017  RH  090%=      5-min Rain = 0
KBR1 111143Z 03025G30KT M00/M02 A3023 RMK A01 T10031017  RH  090%=      5-min Rain = 0
KBR1 111144Z 03024G31KT M00/M02 A3023 RMK A01 T10031017  RH  090%=      5-min Rain = 0
KBR1 111145Z 03027G33KT M00/M02 A3023 RMK A01 T10031017  RH  090%=      5-min Rain = 0
KBR1 111146Z 02025G30KT M00/M02 A3023 RMK A01 T10031017  RH  090%=      5-min Rain = 0
KBR1 111147Z 02028KT M00/M02 A3023 RMK A01 T10031017  RH  090%=      5-min Rain = 0
KBR1 111148Z 03027G36KT M00/M02 A3023 RMK A01 T10031017  RH  090%=      5-min Rain = 0
KBR1 111149Z 02028G35KT M00/M02 A3023 RMK A01 T10041018  RH  090%=      5-min Rain = 0
KBR1 111150Z 03025G31KT M00/M02 A3023 RMK A01 T10031018  RH  090%=      5-min Rain = 0
KBR1 111151Z 02028G34KT M00/M02 A3023 RMK A01 T10031019  RH  090%=      5-min Rain = 0
KBR1 111152Z 03026G32KT M00/M02 A3023 RMK A01 T10041019  RH  089%=      5-min Rain = 0
KBR1 111153Z 03023G28KT M00/M02 A3023 RMK A01 T10041020  RH  089%=      5-min Rain = 0
KBR1 111154Z 02024G29KT M00/M02 A3024 RMK A01 T10041020  RH  089%=      5-min Rain = 0
KBR1 111155Z 02031KT M00/M02 A3023 RMK A01 T10041020  RH  089%=      5-min Rain = 0
KBR1 111156Z 03030G36KT M01/M02 A3023 RMK A01 T10051021  RH  089%=      5-min Rain = 0
KBR1 111157Z 03030KT M01/M02 A3023 RMK A01 T10051021  RH  089%=      5-min Rain = 0
KBR1 111158Z 03027G33KT M01/M02 A3023 RMK A01 T10051021  RH  089%=      5-min Rain = 0
KBR1 111159Z 02029G34KT M01/M02 A3024 RMK A01 T10051022  RH  089%=      5-min Rain = 0
KBR1 111200Z 03024G31KT M01/M02 A3024 RMK A01 T10051022  RH  088%=      5-min Rain = 0
KBR1 111201Z 02027KT M01/M02 A3024 RMK A01 T10061023  RH  088%=      5-min Rain = 0
KBR1 111202Z 02022G29KT M01/M02 A3024 RMK A01 T10061023  RH  088%=      5-min Rain = 0
KBR1 111203Z 03023KT M01/M02 A3024 RMK A01 T10061023  RH  088%=      5-min Rain = 0
KBR1 111204Z 03027KT M01/M02 A3024 RMK A01 T10061023  RH  089%=      5-min Rain = 0
KBR1 111205Z 03023G28KT M01/M02 A3025 RMK A01 T10061023  RH  089%=      5-min Rain = 0
KBR1 111206Z 03023G31KT M01/M02 A3025 RMK A01 T10071023  RH  089%=      5-min Rain = 0
KBR1 111207Z 04027KT M01/M02 A3025 RMK A01 T10071023  RH  089%=      5-min Rain = 0
KBR1 111208Z 03024KT M01/M02 A3025 RMK A01 T10091024  RH  089%=      5-min Rain = 0
KBR1 111209Z 02024G30KT M01/M02 A3025 RMK A01 T10101024  RH  090%=      5-min Rain = 0
KBR1 111210Z 03025G34KT M01/M02 A3025 RMK A01 T10101024  RH  090%=      5-min Rain = 0
KBR1 111211Z 03025G30KT M01/M03 A3025 RMK A01 T10111025  RH  090%=      5-min Rain = 0
KBR1 111212Z 03026KT M01/M03 A3025 RMK A01 T10111026  RH  090%=      5-min Rain = 0
KBR1 111213Z 02025G30KT M01/M03 A3025 RMK A01 T10121027  RH  089%=      5-min Rain = 0
KBR1 111214Z 03028G36KT M01/M03 A3025 RMK A01 T10121027  RH  089%=      5-min Rain = 0
KBR1 111215Z 02027G32KT M01/M03 A3025 RMK A01 T10131029  RH  088%=      5-min Rain = 0
KBR1 111216Z 02028G34KT M01/M03 A3025 RMK A01 T10131031  RH  088%=      5-min Rain = 0
KBR1 111217Z 03025G30KT M01/M03 A3026 RMK A01 T10141032  RH  088%=      5-min Rain = 0
KBR1 111218Z 02028G33KT M02/M03 A3025 RMK A01 T10151033  RH  087%=      5-min Rain = 0
KBR1 111219Z 03029G35KT M02/M04 A3026 RMK A01 T10151035  RH  087%=      5-min Rain = 0
KBR1 111220Z 03027KT M02/M04 A3026 RMK A01 T10161036  RH  086%=      5-min Rain = 0
KBR1 111221Z 02026G33KT M02/M04 A3026 RMK A01 T10161036  RH  086%=      5-min Rain = 0
KBR1 111222Z 02030KT M02/M04 A3026 RMK A01 T10171036  RH  087%=      5-min Rain = 0
KBR1 111223Z 02025G30KT M02/M04 A3026 RMK A01 T10181035  RH  088%=      5-min Rain = 0
KBR1 111224Z 02026KT M02/M04 A3026 RMK A01 T10181035  RH  089%=      5-min Rain = 0
KBR1 111225Z 03024G30KT M02/M03 A3026 RMK A01 T10191034  RH  089%=      5-min Rain = 0
KBR1 111226Z 03024G35KT M02/M03 A3026 RMK A01 T10191034  RH  089%=      5-min Rain = 0
KBR1 111227Z 03032G37KT M02/M04 A3026 RMK A01 T10201038  RH  088%=      5-min Rain = 0
KBR1 111228Z 03028G35KT M02/M04 A3026 RMK A01 T10221042  RH  086%=      5-min Rain = 0
KBR1 111229Z 03030G35KT M02/M05 A3026 RMK A01 T10241045  RH  085%=      5-min Rain = 0
KBR1 111230Z 03030KT M03/M05 A3027 RMK A01 T10251046  RH  085%=      5-min Rain = 0
KBR1 111231Z 02021G28KT M03/M05 A3027 RMK A01 T10251046  RH  086%=      5-min Rain = 0
KBR1 111232Z 03028G34KT M03/M05 A3027 RMK A01 T10251045  RH  087%=      5-min Rain = 0
KBR1 111233Z 02026G33KT M03/M05 A3027 RMK A01 T10261045  RH  086%=      5-min Rain = 0
KBR1 111234Z 03022G32KT M03/M05 A3027 RMK A01 T10261045  RH  087%=      5-min Rain = 0
KBR1 111235Z 03026G34KT M03/M05 A3027 RMK A01 T10261045  RH  087%=      5-min Rain = 0
KBR1 111236Z 03026KT M03/M05 A3027 RMK A01 T10261045  RH  087%=      5-min Rain = 0
KBR1 111237Z 02026G37KT M03/M05 A3028 RMK A01 T10261045  RH  087%=      5-min Rain = 0
KBR1 111238Z 03023G29KT M03/M05 A3028 RMK A01 T10261045  RH  087%=      5-min Rain = 0
KBR1 111239Z 03022KT M03/M05 A3028 RMK A01 T10271045  RH  088%=      5-min Rain = 0
KBR1 111240Z 03026KT M03/M04 A3027 RMK A01 T10271044  RH  088%=      5-min Rain = 0
KBR1 111241Z 03022KT M03/M04 A3028 RMK A01 T10271044  RH  088%=      5-min Rain = 0
KBR1 111242Z 03023KT M03/M04 A3028 RMK A01 T10271044  RH  088%=      5-min Rain = 0
KBR1 111243Z 03027G32KT M03/M04 A3028 RMK A01 T10271044  RH  088%=      5-min Rain = 0
KBR1 111244Z 03024KT M03/M04 A3028 RMK A01 T10281044  RH  088%=      5-min Rain = 0
KBR1 111245Z 03027KT M03/M04 A3028 RMK A01 T10281044  RH  089%=      5-min Rain = 0
KBR1 111246Z 03025G30KT M03/M05 A3028 RMK A01 T10291045  RH  089%=      5-min Rain = 0
KBR1 111247Z 02021G29KT M03/M05 A3028 RMK A01 T10291045  RH  089%=      5-min Rain = 0
KBR1 111248Z 03022G27KT M03/M05 A3028 RMK A01 T10291045  RH  089%=      5-min Rain = 0
KBR1 111249Z 03023G28KT M03/M05 A3029 RMK A01 T10301045  RH  089%=      5-min Rain = 0
KBR1 111250Z 03023G32KT M03/M05 A3029 RMK A01 T10311046  RH  089%=      5-min Rain = 0
KBR1 111251Z 03032G37KT M03/M05 A3028 RMK A01 T10311048  RH  088%=      5-min Rain = 0
KBR1 111252Z 03028G37KT M03/M05 A3029 RMK A01 T10321050  RH  088%=      5-min Rain = 0
KBR1 111253Z 03028G33KT M03/M05 A3029 RMK A01 T10331051  RH  087%=      5-min Rain = 0
KBR1 111254Z 03027KT M03/M05 A3029 RMK A01 T10331051  RH  087%=      5-min Rain = 0
KBR1 111255Z 02026KT M03/M05 A3029 RMK A01 T10331050  RH  088%=      5-min Rain = 0
KBR1 111256Z 03025G32KT M03/M05 A3029 RMK A01 T10331050  RH  088%=      5-min Rain = 0
KBR1 111257Z 03024KT M03/M05 A303 RMK A01 T10331050  RH  088%=      5-min Rain = 0
KBR1 111258Z 03027KT M03/M05 A303 RMK A01 T10331050  RH  088%=      5-min Rain = 0
KBR1 111259Z 02025G30KT M03/M05 A303 RMK A01 T10331051  RH  088%=      5-min Rain = 0
KBR1 111300Z 03024KT M03/M05 A303 RMK A01 T10331051  RH  088%=      5-min Rain = 0
KBR1 111301Z 02023KT M03/M05 A303 RMK A01 T10331051  RH  088%=      5-min Rain = 0
KBR1 111302Z 03024KT M03/M05 A303 RMK A01 T10331050  RH  088%=      5-min Rain = 0
KBR1 111303Z 03025KT M03/M05 A3031 RMK A01 T10331051  RH  088%=      5-min Rain = 0
KBR1 111304Z 02021G28KT M03/M05 A3031 RMK A01 T10331051  RH  088%=      5-min Rain = 0
KBR1 111305Z 02027KT M03/M05 A303 RMK A01 T10331051  RH  088%=      5-min Rain = 0
KBR1 111306Z 02022G29KT M03/M05 A3031 RMK A01 T10331052  RH  087%=      5-min Rain = 0
KBR1 111307Z 02026G32KT M03/M05 A303 RMK A01 T10331052  RH  087%=      5-min Rain = 0
KBR1 111308Z 02026KT M03/M05 A303 RMK A01 T10331054  RH  086%=      5-min Rain = 0
KBR1 111309Z 02024G31KT M03/M06 A3031 RMK A01 T10331055  RH  085%=      5-min Rain = 0
KBR1 111310Z 02024G29KT M03/M06 A3031 RMK A01 T10331055  RH  085%=      5-min Rain = 0
KBR1 111311Z 02025KT M03/M06 A3031 RMK A01 T10331055  RH  085%=      5-min Rain = 0
KBR1 111312Z 03027G32KT M03/M06 A3031 RMK A01 T10331055  RH  084%=      5-min Rain = 0
KBR1 111313Z 02029G39KT M03/M06 A3031 RMK A01 T10331057  RH  084%=      5-min Rain = 0
KBR1 111314Z 02030G37KT M03/M06 A3031 RMK A01 T10341058  RH  083%=      5-min Rain = 0
KBR1 111315Z 02024G29KT M03/M06 A3032 RMK A01 T10341059  RH  083%=      5-min Rain = 0
KBR1 111316Z 02027G34KT M03/M06 A3032 RMK A01 T10341059  RH  083%=      5-min Rain = 0
KBR1 111317Z 03027G32KT M03/M06 A3032 RMK A01 T10341059  RH  083%=      5-min Rain = 0
KBR1 111318Z 03028KT M04/M06 A3032 RMK A01 T10351060  RH  083%=      5-min Rain = 0
KBR1 111319Z 03029KT M04/M06 A3032 RMK A01 T10351059  RH  083%=      5-min Rain = 0
KBR1 111320Z 02028G35KT M04/M06 A3032 RMK A01 T10351059  RH  083%=      5-min Rain = 0
KBR1 111321Z 02032KT M04/M06 A3032 RMK A01 T10361060  RH  083%=      5-min Rain = 0
KBR1 111322Z 02026G31KT M04/M06 A3033 RMK A01 T10351061  RH  083%=      5-min Rain = 0
KBR1 111323Z 03026G32KT M04/M06 A3033 RMK A01 T10361062  RH  082%=      5-min Rain = 0
KBR1 111324Z 03027G32KT M04/M06 A3033 RMK A01 T10351061  RH  082%=      5-min Rain = 0
KBR1 111325Z 02026KT M04/M06 A3033 RMK A01 T10351061  RH  083%=      5-min Rain = 0
KBR1 111326Z 03027G33KT M04/M06 A3033 RMK A01 T10361060  RH  083%=      5-min Rain = 0
KBR1 111327Z 02026G33KT M04/M06 A3033 RMK A01 T10371060  RH  084%=      5-min Rain = 0
KBR1 111328Z 03025G31KT M04/M06 A3033 RMK A01 T10371059  RH  084%=      5-min Rain = 0
KBR1 111329Z 03028KT M04/M06 A3033 RMK A01 T10371060  RH  084%=      5-min Rain = 0
KBR1 111330Z 02028KT M04/M06 A3033 RMK A01 T10371061  RH  084%=      5-min Rain = 0
KBR1 111331Z 03029KT M04/M06 A3033 RMK A01 T10381063  RH  082%=      5-min Rain = 0
KBR1 111332Z 02029G34KT M04/M06 A3033 RMK A01 T10371064  RH  082%=      5-min Rain = 0
KBR1 111333Z 02027KT M04/M07 A3034 RMK A01 T10371065  RH  081%=      5-min Rain = 0
KBR1 111334Z 02028KT M04/M06 A3034 RMK A01 T10371064  RH  081%=      5-min Rain = 0
KBR1 111335Z 02030G36KT M04/M06 A3034 RMK A01 T10381064  RH  082%=      5-min Rain = 0
KBR1 111336Z 02025KT M04/M06 A3034 RMK A01 T10381064  RH  082%=      5-min Rain = 0
KBR1 111337Z 02025KT M04/M06 A3034 RMK A01 T10381064  RH  082%=      5-min Rain = 0
KBR1 111338Z 02027KT M04/M07 A3034 RMK A01 T10381065  RH  082%=      5-min Rain = 0
KBR1 111339Z 03030KT M04/M07 A3034 RMK A01 T10391068  RH  080%=      5-min Rain = 0
KBR1 111340Z 03031G39KT M04/M07 A3034 RMK A01 T10391071  RH  079%=      5-min Rain = 0
KBR1 111341Z 02030G36KT M04/M07 A3034 RMK A01 T10401073  RH  077%=      5-min Rain = 0
KBR1 111342Z 03030G35KT M04/M07 A3034 RMK A01 T10401074  RH  077%=      5-min Rain = 0
KBR1 111343Z 03031KT M04/M08 A3034 RMK A01 T10411075  RH  077%=      5-min Rain = 0
KBR1 111344Z 03028G34KT M04/M07 A3035 RMK A01 T10411074  RH  078%=      5-min Rain = 0
KBR1 111345Z 03022G28KT M04/M07 A3035 RMK A01 T10411074  RH  078%=      5-min Rain = 0
KBR1 111346Z 03025G32KT M04/M07 A3035 RMK A01 T10411073  RH  078%=      5-min Rain = 0
KBR1 111347Z 03025KT M04/M07 A3035 RMK A01 T10401073  RH  078%=      5-min Rain = 0
KBR1 111348Z 03026G31KT M04/M07 A3035 RMK A01 T10401073  RH  078%=      5-min Rain = 0
KBR1 111349Z 03024G29KT M04/M07 A3036 RMK A01 T10411073  RH  078%=      5-min Rain = 0
KBR1 111350Z 03023KT M04/M07 A3036 RMK A01 T10421073  RH  079%=      5-min Rain = 0
KBR1 111351Z 02022G30KT M04/M07 A3036 RMK A01 T10421073  RH  079%=      5-min Rain = 0
KBR1 111352Z 02025G32KT M04/M07 A3036 RMK A01 T10411073  RH  079%=      5-min Rain = 0
KBR1 111353Z 02026G32KT M04/M07 A3036 RMK A01 T10411074  RH  078%=      5-min Rain = 0
KBR1 111354Z 02021G28KT M04/M07 A3037 RMK A01 T10411074  RH  078%=      5-min Rain = 0
KBR1 111355Z 02028G35KT M04/M07 A3037 RMK A01 T10421074  RH  078%=      5-min Rain = 0
KBR1 111356Z 02024G29KT M04/M07 A3037 RMK A01 T10421074  RH  078%=      5-min Rain = 0
KBR1 111357Z 02023G29KT M04/M07 A3037 RMK A01 T10411074  RH  078%=      5-min Rain = 0
KBR1 111358Z 02027KT M04/M07 A3037 RMK A01 T10421074  RH  078%=      5-min Rain = 0
KBR1 111359Z 02025G31KT M04/M07 A3038 RMK A01 T10421074  RH  078%=      5-min Rain = 0
KBR1 111400Z 02027G34KT M04/M08 A3038 RMK A01 T10431076  RH  077%=      5-min Rain = 0
KBR1 111401Z 02025G33KT M04/M08 A3038 RMK A01 T10441079  RH  076%=      5-min Rain = 0
KBR1 111402Z 02029G36KT M04/M08 A3038 RMK A01 T10441080  RH  076%=      5-min Rain = 0
KBR1 111403Z 02031G37KT M04/M08 A3038 RMK A01 T10441080  RH  076%=      5-min Rain = 0
KBR1 111404Z 02025KT M05/M08 A3038 RMK A01 T10451081  RH  076%=      5-min Rain = 0
KBR1 111405Z 02028G33KT M05/M08 A3039 RMK A01 T10451081  RH  076%=      5-min Rain = 0
KBR1 111406Z 02026KT M05/M08 A3039 RMK A01 T10461081  RH  076%=      5-min Rain = 0
KBR1 111407Z 02028KT M05/M08 A3039 RMK A01 T10461081  RH  076%=      5-min Rain = 0
KBR1 111408Z 02031KT M05/M08 A3039 RMK A01 T10461080  RH  077%=      5-min Rain = 0
KBR1 111409Z 02027G32KT M05/M08 A3039 RMK A01 T10461080  RH  077%=      5-min Rain = 0
KBR1 111410Z 02025KT M05/M08 A3039 RMK A01 T10461079  RH  078%=      5-min Rain = 0
KBR1 111411Z 02025G30KT M05/M08 A3039 RMK A01 T10461078  RH  078%=      5-min Rain = 0
KBR1 111412Z 03026G31KT M05/M08 A3039 RMK A01 T10471078  RH  079%=      5-min Rain = 0
KBR1 111413Z 02030KT M05/M08 A3039 RMK A01 T10471078  RH  079%=      5-min Rain = 0
KBR1 111414Z 03028KT M05/M08 A3039 RMK A01 T10471077  RH  080%=      5-min Rain = 0
KBR1 111415Z 03024KT M05/M08 A304 RMK A01 T10481076  RH  081%=      5-min Rain = 0
KBR1 111416Z 03024KT M05/M08 A304 RMK A01 T10481076  RH  081%=      5-min Rain = 0
KBR1 111417Z 02025G30KT M05/M08 A304 RMK A01 T10471076  RH  080%=      5-min Rain = 0
KBR1 111418Z 02025G30KT M05/M08 A304 RMK A01 T10471077  RH  080%=      5-min Rain = 0
KBR1 111419Z 02022KT M05/M08 A304 RMK A01 T10481078  RH  079%=      5-min Rain = 0
KBR1 111420Z 02025G31KT M05/M08 A304 RMK A01 T10471077  RH  079%=      5-min Rain = 0
KBR1 111421Z 03025G30KT M05/M08 A304 RMK A01 T10471078  RH  079%=      5-min Rain = 0
KBR1 111422Z 03025KT M05/M08 A304 RMK A01 T10471078  RH  079%=      5-min Rain = 0
KBR1 111423Z 02027KT M05/M08 A304 RMK A01 T10471079  RH  078%=      5-min Rain = 0
KBR1 111424Z 02026G33KT M05/M08 A304 RMK A01 T10471080  RH  078%=      5-min Rain = 0
KBR1 111425Z 03023KT M05/M08 A3041 RMK A01 T10471081  RH  077%=      5-min Rain = 0
KBR1 111426Z 03029G34KT M05/M08 A304 RMK A01 T10461080  RH  077%=      5-min Rain = 0
KBR1 111427Z 02027KT M05/M08 A304 RMK A01 T10461081  RH  077%=      5-min Rain = 0
KBR1 111428Z 03029G35KT M05/M08 A304 RMK A01 T10461081  RH  077%=      5-min Rain = 0
KBR1 111429Z 03026G32KT M05/M08 A3041 RMK A01 T10471082  RH  077%=      5-min Rain = 0
KBR1 111430Z 03032KT M05/M08 A304 RMK A01 T10471082  RH  077%=      5-min Rain = 0
KBR1 111431Z 02031KT M05/M08 A3041 RMK A01 T10471082  RH  077%=      5-min Rain = 0
KBR1 111432Z 02026G32KT M05/M08 A3041 RMK A01 T10481081  RH  077%=      5-min Rain = 0
KBR1 111433Z 02024KT M05/M08 A3041 RMK A01 T10471081  RH  077%=      5-min Rain = 0
KBR1 111434Z 02021KT M05/M08 A3041 RMK A01 T10471080  RH  078%=      5-min Rain = 0
KBR1 111435Z 02027G33KT M05/M08 A3041 RMK A01 T10471080  RH  078%=      5-min Rain = 0
KBR1 111436Z 02026KT M05/M08 A3041 RMK A01 T10471080  RH  078%=      5-min Rain = 0
KBR1 111437Z 02020G26KT M05/M08 A3042 RMK A01 T10471079  RH  078%=      5-min Rain = 0
KBR1 111438Z 02026KT M05/M08 A3042 RMK A01 T10461078  RH  079%=      5-min Rain = 0
KBR1 111439Z 02024KT M05/M08 A3042 RMK A01 T10471078  RH  079%=      5-min Rain = 0
KBR1 111440Z 01025G31KT M05/M08 A3042 RMK A01 T10481078  RH  079%=      5-min Rain = 0
KBR1 111441Z 01024KT M05/M08 A3042 RMK A01 T10481079  RH  079%=      5-min Rain = 0
KBR1 111442Z 01026G31KT M05/M08 A3042 RMK A01 T10481079  RH  079%=      5-min Rain = 0
KBR1 111443Z 01025KT M05/M08 A3042 RMK A01 T10481079  RH  079%=      5-min Rain = 0
KBR1 111444Z 02028G33KT M05/M08 A3042 RMK A01 T10481079  RH  079%=      5-min Rain = 0
KBR1 111445Z 02023G31KT M05/M08 A3042 RMK A01 T10481078  RH  079%=      5-min Rain = 0
KBR1 111446Z 03028KT M05/M08 A3042 RMK A01 T10471079  RH  079%=      5-min Rain = 0
KBR1 111447Z 02026KT M05/M08 A3042 RMK A01 T10471079  RH  078%=      5-min Rain = 0
KBR1 111448Z 02028G35KT M05/M08 A3042 RMK A01 T10471080  RH  078%=      5-min Rain = 0
KBR1 111449Z 02028G34KT M05/M08 A3042 RMK A01 T10471080  RH  078%=      5-min Rain = 0
KBR1 111450Z 02031KT M05/M08 A3042 RMK A01 T10471081  RH  078%=      5-min Rain = 0
KBR1 111451Z 02031KT M05/M08 A3043 RMK A01 T10481081  RH  077%=      5-min Rain = 0
KBR1 111452Z 02025KT M05/M08 A3043 RMK A01 T10471081  RH  077%=      5-min Rain = 0
KBR1 111453Z 02026KT M05/M08 A3043 RMK A01 T10471081  RH  077%=      5-min Rain = 0
KBR1 111454Z 02023G28KT M05/M08 A3043 RMK A01 T10471081  RH  077%=      5-min Rain = 0
KBR1 111455Z 02025G30KT M05/M08 A3043 RMK A01 T10471081  RH  077%=      5-min Rain = 0
KBR1 111456Z 02022KT M05/M08 A3043 RMK A01 T10471080  RH  077%=      5-min Rain = 0
KBR1 111457Z 02023KT M05/M08 A3043 RMK A01 T10471080  RH  078%=      5-min Rain = 0
KBR1 111458Z 02023KT M05/M08 A3043 RMK A01 T10471080  RH  077%=      5-min Rain = 0
KBR1 111459Z 02023KT M05/M08 A3044 RMK A01 T10471080  RH  077%=      5-min Rain = 0
KBR1 111500Z 02022G27KT M05/M08 A3044 RMK A01 T10471080  RH  078%=      5-min Rain = 0
KBR1 111501Z 02022KT M05/M08 A3044 RMK A01 T10461079  RH  078%=      5-min Rain = 0
KBR1 111502Z 02023KT M05/M08 A3044 RMK A01 T10461078  RH  078%=      5-min Rain = 0
KBR1 111503Z 01023KT M05/M08 A3044 RMK A01 T10461078  RH  079%=      5-min Rain = 0
KBR1 111504Z 02025KT M05/M08 A3044 RMK A01 T10461078  RH  079%=      5-min Rain = 0
KBR1 111505Z 01026KT M05/M08 A3044 RMK A01 T10461077  RH  079%=      5-min Rain = 0
KBR1 111506Z 01024G30KT M05/M08 A3044 RMK A01 T10471078  RH  079%=      5-min Rain = 0
KBR1 111507Z 02027KT M05/M08 A3044 RMK A01 T10481077  RH  080%=      5-min Rain = 0
KBR1 111508Z 01028G34KT M05/M08 A3044 RMK A01 T10491079  RH  080%=      5-min Rain = 0
KBR1 111509Z 01028G34KT M05/M08 A3044 RMK A01 T10511081  RH  079%=      5-min Rain = 0
KBR1 111510Z 01025G31KT M05/M08 A3044 RMK A01 T10521082  RH  079%=      5-min Rain = 0
KBR1 111511Z 01027KT M05/M08 A3045 RMK A01 T10521083  RH  079%=      5-min Rain = 0
KBR1 111512Z 01027G33KT M05/M08 A3045 RMK A01 T10521083  RH  079%=      5-min Rain = 0
KBR1 111513Z 02026G31KT M05/M08 A3045 RMK A01 T10521083  RH  079%=      5-min Rain = 0
KBR1 111514Z 02028KT M05/M08 A3045 RMK A01 T10521084  RH  079%=      5-min Rain = 0
KBR1 111515Z 01027G34KT M05/M09 A3045 RMK A01 T10531085  RH  078%=      5-min Rain = 0
KBR1 111516Z 01027G33KT M05/M09 A3045 RMK A01 T10531086  RH  078%=      5-min Rain = 0
KBR1 111517Z 02027KT M05/M09 A3045 RMK A01 T10531086  RH  078%=      5-min Rain = 0
KBR1 111518Z 02024KT M05/M09 A3045 RMK A01 T10531086  RH  078%=      5-min Rain = 0
KBR1 111519Z 02025KT M05/M09 A3045 RMK A01 T10531086  RH  078%=      5-min Rain = 0
KBR1 111520Z 01027KT M05/M09 A3045 RMK A01 T10531086  RH  078%=      5-min Rain = 0
KBR1 111521Z 02025G30KT M05/M09 A3045 RMK A01 T10531086  RH  077%=      5-min Rain = 0
KBR1 111522Z 02028G33KT M05/M09 A3045 RMK A01 T10541088  RH  077%=      5-min Rain = 0
KBR1 111523Z 02030G37KT M05/M09 A3045 RMK A01 T10541089  RH  077%=      5-min Rain = 0
KBR1 111524Z 02031KT M06/M09 A3045 RMK A01 T10551090  RH  076%=      5-min Rain = 0
KBR1 111525Z 02028G35KT M06/M09 A3045 RMK A01 T10551091  RH  076%=      5-min Rain = 0
KBR1 111526Z 02028G34KT M06/M09 A3045 RMK A01 T10551091  RH  076%=      5-min Rain = 0
KBR1 111527Z 02027KT M06/M09 A3045 RMK A01 T10551091  RH  076%=      5-min Rain = 0
KBR1 111528Z 02029KT M06/M09 A3045 RMK A01 T10551091  RH  076%=      5-min Rain = 0
KBR1 111529Z 02026G31KT M06/M09 A3046 RMK A01 T10551091  RH  076%=      5-min Rain = 0
KBR1 111530Z 02026KT M05/M09 A3046 RMK A01 T10541090  RH  076%=      5-min Rain = 0
KBR1 111531Z 02028KT M05/M09 A3046 RMK A01 T10541090  RH  076%=      5-min Rain = 0
KBR1 111532Z 02028G33KT M05/M09 A3046 RMK A01 T10541090  RH  076%=      5-min Rain = 0
KBR1 111533Z 02027KT M05/M09 A3046 RMK A01 T10541090  RH  076%=      5-min Rain = 0
KBR1 111534Z 02025KT M05/M09 A3046 RMK A01 T10531090  RH  075%=      5-min Rain = 0
KBR1 111535Z 02025KT M05/M09 A3046 RMK A01 T10531090  RH  075%=      5-min Rain = 0
KBR1 111536Z 02026KT M05/M09 A3046 RMK A01 T10531090  RH  075%=      5-min Rain = 0
KBR1 111537Z 02024G29KT M05/M09 A3047 RMK A01 T10521090  RH  075%=      5-min Rain = 0
KBR1 111538Z 02025G30KT M05/M09 A3047 RMK A01 T10521089  RH  075%=      5-min Rain = 0
KBR1 111539Z 02025KT M05/M09 A3047 RMK A01 T10521089  RH  075%=      5-min Rain = 0
KBR1 111540Z 02024G29KT M05/M09 A3046 RMK A01 T10511089  RH  075%=      5-min Rain = 0
KBR1 111541Z 02027KT M05/M09 A3047 RMK A01 T10511089  RH  075%=      5-min Rain = 0
KBR1 111542Z 02022KT M05/M09 A3046 RMK A01 T10511089  RH  075%=      5-min Rain = 0
KBR1 111543Z 02021KT M05/M09 A3047 RMK A01 T10501088  RH  075%=      5-min Rain = 0
KBR1 111544Z 02023KT M05/M09 A3046 RMK A01 T10501087  RH  075%=      5-min Rain = 0
KBR1 111545Z 02023KT M05/M09 A3046 RMK A01 T10501087  RH  075%=      5-min Rain = 0
KBR1 111546Z 02025KT M05/M09 A3046 RMK A01 T10501087  RH  075%=      5-min Rain = 0
KBR1 111547Z 02020G25KT M05/M09 A3047 RMK A01 T10501087  RH  075%=      5-min Rain = 0
KBR1 111548Z 02024KT M05/M09 A3046 RMK A01 T10501087  RH  076%=      5-min Rain = 0
KBR1 111549Z 02024G29KT M05/M09 A3046 RMK A01 T10501087  RH  076%=      5-min Rain = 0
KBR1 111550Z 02025G30KT M05/M09 A3046 RMK A01 T10511086  RH  076%=      5-min Rain = 0
KBR1 111551Z 02022KT M05/M09 A3047 RMK A01 T10511086  RH  076%=      5-min Rain = 0
KBR1 111552Z 01020KT M05/M09 A3047 RMK A01 T10501086  RH  076%=      5-min Rain = 0
KBR1 111553Z 01023KT M05/M08 A3047 RMK A01 T10501084  RH  077%=      5-min Rain = 0
KBR1 111554Z 01024KT M05/M09 A3047 RMK A01 T10501085  RH  076%=      5-min Rain = 0
KBR1 111555Z 01020KT M05/M09 A3047 RMK A01 T10511085  RH  077%=      5-min Rain = 0
KBR1 111556Z 02020KT M05/M08 A3047 RMK A01 T10501084  RH  077%=      5-min Rain = 0
KBR1 111557Z 01021G26KT M05/M09 A3047 RMK A01 T10491085  RH  076%=      5-min Rain = 0
KBR1 111558Z 01024KT M05/M09 A3047 RMK A01 T10501086  RH  076%=      5-min Rain = 0
KBR1 111559Z 01021G26KT M05/M09 A3047 RMK A01 T10511087  RH  076%=      5-min Rain = 0
KBR1 111600Z 01023G28KT M05/M09 A3047 RMK A01 T10511087  RH  076%=      5-min Rain = 0
KBR1 111601Z 01022KT M05/M09 A3047 RMK A01 T10521088  RH  076%=      5-min Rain = 0
KBR1 111602Z 01024KT M05/M09 A3047 RMK A01 T10511088  RH  075%=      5-min Rain = 0
KBR1 111603Z 02026G31KT M05/M09 A3047 RMK A01 T10501089  RH  074%=      5-min Rain = 0
KBR1 111604Z 02027KT M05/M09 A3047 RMK A01 T10511092  RH  073%=      5-min Rain = 0
KBR1 111605Z 01025G31KT M05/M10 A3047 RMK A01 T10521095  RH  072%=      5-min Rain = 0
KBR1 111606Z 01029KT M05/M10 A3047 RMK A01 T10521096  RH  071%=      5-min Rain = 0
KBR1 111607Z 02028KT M05/M10 A3047 RMK A01 T10521097  RH  071%=      5-min Rain = 0
KBR1 111608Z 01027KT M05/M10 A3047 RMK A01 T10531098  RH  071%=      5-min Rain = 0
KBR1 111609Z 02022G30KT M05/M10 A3047 RMK A01 T10521097  RH  071%=      5-min Rain = 0
KBR1 111610Z 01023G29KT M05/M10 A3047 RMK A01 T10501095  RH  071%=      5-min Rain = 0
KBR1 111611Z 02021G27KT M05/M09 A3047 RMK A01 T10481094  RH  070%=      5-min Rain = 0
KBR1 111612Z 03022G27KT M05/M09 A3047 RMK A01 T10471094  RH  070%=      5-min Rain = 0
KBR1 111613Z 02026G31KT M05/M10 A3047 RMK A01 T10471095  RH  069%=      5-min Rain = 0
KBR1 111614Z 02024G29KT M05/M10 A3047 RMK A01 T10471095  RH  069%=      5-min Rain = 0
KBR1 111615Z 02028KT M05/M10 A3047 RMK A01 T10471095  RH  069%=      5-min Rain = 0
KBR1 111616Z 01028KT M05/M10 A3047 RMK A01 T10481096  RH  069%=      5-min Rain = 0
KBR1 111617Z 02029KT M05/M10 A3047 RMK A01 T10481096  RH  069%=      5-min Rain = 0
KBR1 111618Z 02031KT M05/M10 A3047 RMK A01 T10491097  RH  069%=      5-min Rain = 0
KBR1 111619Z 02028G34KT M05/M10 A3047 RMK A01 T10491097  RH  069%=      5-min Rain = 0
KBR1 111620Z 02030G36KT M05/M10 A3047 RMK A01 T10481096  RH  069%=      5-min Rain = 0
KBR1 111621Z 02029KT M05/M10 A3047 RMK A01 T10471097  RH  068%=      5-min Rain = 0
KBR1 111622Z 02029KT M05/M10 A3047 RMK A01 T10481098  RH  068%=      5-min Rain = 0
KBR1 111623Z 02031G36KT M05/M10 A3047 RMK A01 T10481098  RH  068%=      5-min Rain = 0
KBR1 111624Z 02032G38KT M05/M10 A3047 RMK A01 T10481098  RH  068%=      5-min Rain = 0
KBR1 111625Z 02029G35KT M05/M10 A3047 RMK A01 T10481098  RH  068%=      5-min Rain = 0
KBR1 111626Z 02026G31KT M05/M10 A3048 RMK A01 T10471098  RH  068%=      5-min Rain = 0
KBR1 111627Z 02025G30KT M05/M10 A3048 RMK A01 T10471098  RH  068%=      5-min Rain = 0
KBR1 111628Z 02028KT M05/M10 A3048 RMK A01 T10461097  RH  068%=      5-min Rain = 0
KBR1 111629Z 02025G32KT M05/M10 A3048 RMK A01 T10451096  RH  067%=      5-min Rain = 0
KBR1 111630Z 02027G32KT M05/M10 A3048 RMK A01 T10451096  RH  067%=      5-min Rain = 0
KBR1 111631Z 01026G32KT M05/M10 A3048 RMK A01 T10451097  RH  067%=      5-min Rain = 0
KBR1 111632Z 02021KT M05/M10 A3048 RMK A01 T10451096  RH  067%=      5-min Rain = 0
KBR1 111633Z 03025G30KT M04/M09 A3048 RMK A01 T10431094  RH  067%=      5-min Rain = 0
KBR1 111634Z 02026G31KT M04/M10 A3048 RMK A01 T10421096  RH  066%=      5-min Rain = 0
KBR1 111635Z 02024KT M04/M10 A3048 RMK A01 T10431097  RH  066%=      5-min Rain = 0
KBR1 111636Z 02024KT M04/M10 A3048 RMK A01 T10431097  RH  066%=      5-min Rain = 0
KBR1 111637Z 02022KT M04/M10 A3049 RMK A01 T10421095  RH  067%=      5-min Rain = 0
KBR1 111638Z 02023KT M04/M10 A3049 RMK A01 T10411095  RH  066%=      5-min Rain = 0
KBR1 111639Z 02028KT M04/M10 A3049 RMK A01 T10411095  RH  066%=      5-min Rain = 0
KBR1 111640Z 02027KT M04/M10 A3049 RMK A01 T10431097  RH  066%=      5-min Rain = 0
KBR1 111641Z 02029G34KT M04/M10 A3049 RMK A01 T10441097  RH  066%=      5-min Rain = 0
KBR1 111642Z 02026KT M04/M10 A3049 RMK A01 T10441097  RH  067%=      5-min Rain = 0
KBR1 111643Z 02024KT M04/M10 A3049 RMK A01 T10441097  RH  067%=      5-min Rain = 0
KBR1 111644Z 02028KT M04/M10 A3049 RMK A01 T10441096  RH  067%=      5-min Rain = 0
KBR1 111645Z 02026KT M04/M10 A3049 RMK A01 T10441096  RH  067%=      5-min Rain = 0
KBR1 111646Z 02027KT M05/M10 A3049 RMK A01 T10451097  RH  067%=      5-min Rain = 0
KBR1 111647Z 03023G28KT M05/M10 A3049 RMK A01 T10451096  RH  068%=      5-min Rain = 0
KBR1 111648Z 02023KT M04/M09 A3049 RMK A01 T10441094  RH  068%=      5-min Rain = 0
KBR1 111649Z 03024G30KT M04/M10 A3049 RMK A01 T10441095  RH  068%=      5-min Rain = 0
KBR1 111650Z 02021G26KT M04/M10 A305 RMK A01 T10441095  RH  068%=      5-min Rain = 0
KBR1 111651Z 03021KT M04/M09 A3049 RMK A01 T10441094  RH  068%=      5-min Rain = 0
KBR1 111652Z 01021G26KT M04/M09 A305 RMK A01 T10431093  RH  068%=      5-min Rain = 0
KBR1 111653Z 01025KT M04/M09 A305 RMK A01 T10431093  RH  068%=      5-min Rain = 0
KBR1 111654Z 01020KT M04/M09 A305 RMK A01 T10441093  RH  068%=      5-min Rain = 0
KBR1 111655Z 01022G27KT M04/M09 A305 RMK A01 T10441093  RH  069%=      5-min Rain = 0
KBR1 111656Z 01024G30KT M04/M09 A305 RMK A01 T10441093  RH  069%=      5-min Rain = 0
KBR1 111657Z 01022KT M05/M09 A305 RMK A01 T10451093  RH  069%=      5-min Rain = 0
KBR1 111658Z 01024KT M05/M09 A305 RMK A01 T10461094  RH  069%=      5-min Rain = 0
KBR1 111659Z 02021KT M05/M09 A305 RMK A01 T10461094  RH  069%=      5-min Rain = 0
KBR1 111700Z 01023KT M05/M09 A305 RMK A01 T10461093  RH  070%=      5-min Rain = 0
KBR1 111701Z 02024KT M05/M09 A305 RMK A01 T10461094  RH  069%=      5-min Rain = 0
KBR1 111702Z 02023KT M05/M09 A305 RMK A01 T10461093  RH  069%=      5-min Rain = 0
KBR1 111703Z 02023KT M05/M09 A305 RMK A01 T10451093  RH  069%=      5-min Rain = 0
KBR1 111704Z 02022KT M05/M09 A305 RMK A01 T10451094  RH  069%=      5-min Rain = 0
KBR1 111705Z 01023KT M05/M09 A305 RMK A01 T10451094  RH  069%=      5-min Rain = 0
KBR1 111706Z 02018KT M05/M09 A305 RMK A01 T10451094  RH  069%=      5-min Rain = 0
KBR1 111707Z 01019G24KT M04/M09 A305 RMK A01 T10431093  RH  068%=      5-min Rain = 0
KBR1 111708Z 01028KT M04/M09 A305 RMK A01 T10431094  RH  067%=      5-min Rain = 0
KBR1 111709Z 02024G29KT M04/M10 A305 RMK A01 T10441097  RH  066%=      5-min Rain = 0
KBR1 111710Z 02026G32KT M04/M10 A305 RMK A01 T10441098  RH  066%=      5-min Rain = 0
KBR1 111711Z 03025KT M04/M10 A305 RMK A01 T10431099  RH  065%=      5-min Rain = 0
KBR1 111712Z 03027KT M04/M10 A305 RMK A01 T10441100  RH  065%=      5-min Rain = 0
KBR1 111713Z 02022KT M04/M10 A3051 RMK A01 T10431100  RH  065%=      5-min Rain = 0
KBR1 111714Z 02023KT M04/M10 A305 RMK A01 T10411098  RH  065%=      5-min Rain = 0
KBR1 111715Z 02026KT M04/M10 A305 RMK A01 T10411100  RH  063%=      5-min Rain = 0
KBR1 111716Z 02022G30KT M04/M10 A3051 RMK A01 T10421101  RH  063%=      5-min Rain = 0
KBR1 111717Z 02027G32KT M04/M10 A305 RMK A01 T10421101  RH  063%=      5-min Rain = 0
KBR1 111718Z 02027G32KT M04/M10 A305 RMK A01 T10421102  RH  063%=      5-min Rain = 0
KBR1 111719Z 03026KT M04/M10 A305 RMK A01 T10411102  RH  063%=      5-min Rain = 0
KBR1 111720Z 02025G30KT M04/M10 A305 RMK A01 T10421103  RH  063%=      5-min Rain = 0
KBR1 111721Z 02025G30KT M04/M10 A3051 RMK A01 T10421103  RH  063%=      5-min Rain = 0
KBR1 111722Z 02027KT M04/M10 A3051 RMK A01 T10421104  RH  062%=      5-min Rain = 0
KBR1 111723Z 02028KT M04/M11 A3051 RMK A01 T10421105  RH  062%=      5-min Rain = 0
KBR1 111724Z 02027G32KT M04/M11 A305 RMK A01 T10431106  RH  062%=      5-min Rain = 0
KBR1 111725Z 01026G31KT M04/M11 A3051 RMK A01 T10431105  RH  062%=      5-min Rain = 0
KBR1 111726Z 01024KT M04/M11 A3051 RMK A01 T10421105  RH  062%=      5-min Rain = 0
KBR1 111727Z 02023KT M04/M10 A3051 RMK A01 T10401103  RH  062%=      5-min Rain = 0
KBR1 111728Z 02020KT M04/M10 A3051 RMK A01 T10381101  RH  061%=      5-min Rain = 0
KBR1 111729Z 03023KT M04/M10 A3051 RMK A01 T10371102  RH  061%=      5-min Rain = 0
KBR1 111730Z 03022G27KT M04/M10 A3051 RMK A01 T10391103  RH  061%=      5-min Rain = 0
KBR1 111731Z 02022KT M04/M10 A3051 RMK A01 T10381102  RH  061%=      5-min Rain = 0
KBR1 111732Z 02023G29KT M04/M10 A3051 RMK A01 T10381102  RH  061%=      5-min Rain = 0
KBR1 111733Z 01027G32KT M04/M10 A3051 RMK A01 T10391104  RH  061%=      5-min Rain = 0
KBR1 111734Z 01027KT M04/M11 A3051 RMK A01 T10411106  RH  060%=      5-min Rain = 0
KBR1 111735Z 01022KT M04/M11 A3051 RMK A01 T10411106  RH  061%=      5-min Rain = 0
KBR1 111736Z 01025G33KT M04/M10 A3051 RMK A01 T10381103  RH  061%=      5-min Rain = 0
KBR1 111737Z 02025G31KT M04/M11 A3051 RMK A01 T10391105  RH  060%=      5-min Rain = 0
KBR1 111738Z 02026G33KT M04/M11 A3051 RMK A01 T10401106  RH  060%=      5-min Rain = 0
KBR1 111739Z 02026KT M04/M11 A3051 RMK A01 T10401108  RH  059%=      5-min Rain = 0
KBR1 111740Z 01025KT M04/M11 A3051 RMK A01 T10401109  RH  059%=      5-min Rain = 0
KBR1 111741Z 02025KT M04/M11 A3051 RMK A01 T10401109  RH  059%=      5-min Rain = 0
KBR1 111742Z 02023G28KT M04/M11 A3051 RMK A01 T10391107  RH  059%=      5-min Rain = 0
KBR1 111743Z 02023KT M04/M10 A305 RMK A01 T10351104  RH  058%=      5-min Rain = 0
KBR1 111744Z 03024G29KT M03/M11 A305 RMK A01 T10341106  RH  057%=      5-min Rain = 0
KBR1 111745Z 03024KT M03/M11 A305 RMK A01 T10321105  RH  057%=      5-min Rain = 0
KBR1 111746Z 02020G26KT M03/M11 A3051 RMK A01 T10311105  RH  057%=      5-min Rain = 0
KBR1 111747Z 01021KT M03/M10 A3051 RMK A01 T10291104  RH  056%=      5-min Rain = 0
KBR1 111748Z 01022G27KT M03/M10 A3051 RMK A01 T10301104  RH  056%=      5-min Rain = 0
KBR1 111749Z 01025G30KT M03/M10 A3051 RMK A01 T10281104  RH  056%=      5-min Rain = 0
KBR1 111750Z 01025G30KT M03/M10 A3051 RMK A01 T10261102  RH  056%=      5-min Rain = 0
KBR1 111751Z 01025G30KT M03/M11 A3051 RMK A01 T10301108  RH  055%=      5-min Rain = 0
KBR1 111752Z 01026KT M03/M11 A3051 RMK A01 T10321108  RH  056%=      5-min Rain = 0
KBR1 111753Z 02025KT M03/M11 A305 RMK A01 T10321107  RH  056%=      5-min Rain = 0
KBR1 111754Z 02025G30KT M03/M11 A3051 RMK A01 T10341108  RH  056%=      5-min Rain = 0
KBR1 111755Z 01025KT M03/M11 A305 RMK A01 T10341108  RH  057%=      5-min Rain = 0
KBR1 111756Z 01023G29KT M03/M11 A3051 RMK A01 T10341107  RH  057%=      5-min Rain = 0
KBR1 111757Z 02026G31KT M03/M11 A3051 RMK A01 T10331107  RH  057%=      5-min Rain = 0
KBR1 111758Z 02027KT M03/M11 A3051 RMK A01 T10341108  RH  057%=      5-min Rain = 0
KBR1 111759Z 02024KT M04/M11 A305 RMK A01 T10361108  RH  057%=      5-min Rain = 0
KBR1 111800Z 02024KT M04/M11 A3051 RMK A01 T10351106  RH  058%=      5-min Rain = 0
KBR1 111801Z 02024KT M03/M11 A305 RMK A01 T10341106  RH  058%=      5-min Rain = 0
KBR1 111802Z 02024KT M03/M11 A305 RMK A01 T10341106  RH  058%=      5-min Rain = 0
KBR1 111803Z 01024KT M03/M11 A3051 RMK A01 T10341105  RH  058%=      5-min Rain = 0
KBR1 111804Z 01022KT M04/M11 A3051 RMK A01 T10351105  RH  058%=      5-min Rain = 0
KBR1 111805Z 01022G27KT M04/M11 A3051 RMK A01 T10351105  RH  058%=      5-min Rain = 0
KBR1 111806Z 03025G30KT M03/M10 A305 RMK A01 T10321104  RH  058%=      5-min Rain = 0
KBR1 111807Z 03023KT M03/M11 A305 RMK A01 T10321106  RH  057%=      5-min Rain = 0
KBR1 111808Z 02021KT M03/M11 A3051 RMK A01 T10311105  RH  057%=      5-min Rain = 0
KBR1 111809Z 01022G27KT M03/M10 A305 RMK A01 T10301104  RH  057%=      5-min Rain = 0
KBR1 111810Z 01022KT M03/M10 A3051 RMK A01 T10291103  RH  056%=      5-min Rain = 0
KBR1 111811Z 02025KT M03/M11 A3051 RMK A01 T10321107  RH  056%=      5-min Rain = 0
KBR1 111812Z 02023KT M04/M11 A305 RMK A01 T10351108  RH  057%=      5-min Rain = 0
KBR1 111813Z 01024G29KT M04/M11 A3051 RMK A01 T10361108  RH  057%=      5-min Rain = 0
KBR1 111814Z 01025KT M04/M11 A3051 RMK A01 T10361107  RH  058%=      5-min Rain = 0
KBR1 111815Z 01024KT M04/M11 A305 RMK A01 T10361107  RH  058%=      5-min Rain = 0
KBR1 111816Z 01023KT M03/M11 A305 RMK A01 T10341105  RH  058%=      5-min Rain = 0
KBR1 111817Z 02022G31KT M03/M11 A305 RMK A01 T10311105  RH  057%=      5-min Rain = 0
KBR1 111818Z 02027G33KT M03/M11 A305 RMK A01 T10311106  RH  056%=      5-min Rain = 0
KBR1 111819Z 02023G29KT M03/M11 A305 RMK A01 T10321108  RH  056%=      5-min Rain = 0
KBR1 111820Z 01025KT M03/M11 A305 RMK A01 T10311108  RH  056%=      5-min Rain = 0
KBR1 111821Z 01024KT M03/M11 A305 RMK A01 T10331109  RH  056%=      5-min Rain = 0
KBR1 111822Z 02025G31KT M03/M11 A305 RMK A01 T10321108  RH  056%=      5-min Rain = 0
KBR1 111823Z 02027G32KT M03/M11 A305 RMK A01 T10311108  RH  055%=      5-min Rain = 0
KBR1 111824Z 02024KT M03/M11 A305 RMK A01 T10311108  RH  055%=      5-min Rain = 0
KBR1 111825Z 02023KT M03/M11 A305 RMK A01 T10301108  RH  055%=      5-min Rain = 0
KBR1 111826Z 02023KT M03/M11 A305 RMK A01 T10291108  RH  055%=      5-min Rain = 0
KBR1 111827Z 02023KT M03/M11 A305 RMK A01 T10281106  RH  055%=      5-min Rain = 0
KBR1 111828Z 01022KT M02/M10 A305 RMK A01 T10241104  RH  054%=      5-min Rain = 0
KBR1 111829Z 01024KT M02/M11 A3049 RMK A01 T10241107  RH  053%=      5-min Rain = 0
KBR1 111830Z 02023G29KT M02/M11 A3049 RMK A01 T10241107  RH  053%=      5-min Rain = 0
KBR1 111831Z 01026KT M02/M11 A3049 RMK A01 T10231107  RH  053%=      5-min Rain = 0
KBR1 111832Z 02023KT M03/M11 A3049 RMK A01 T10251108  RH  053%=      5-min Rain = 0
KBR1 111833Z 03027G32KT M03/M11 A3049 RMK A01 T10251108  RH  053%=      5-min Rain = 0
KBR1 111834Z 03025KT M03/M11 A3049 RMK A01 T10251107  RH  053%=      5-min Rain = 0
KBR1 111835Z 03022KT M02/M11 A3049 RMK A01 T10241107  RH  053%=      5-min Rain = 0
KBR1 111836Z 04026KT M02/M11 A3049 RMK A01 T10221106  RH  053%=      5-min Rain = 0
KBR1 111837Z 03022KT M02/M11 A3049 RMK A01 T10211106  RH  052%=      5-min Rain = 0
KBR1 111838Z 02023KT M02/M10 A3049 RMK A01 T10181104  RH  052%=      5-min Rain = 0
KBR1 111839Z 02025KT M02/M11 A3049 RMK A01 T10171105  RH  051%=      5-min Rain = 0
KBR1 111840Z 03023KT M02/M11 A3049 RMK A01 T10181107  RH  051%=      5-min Rain = 0
KBR1 111841Z 03024G29KT M02/M11 A3049 RMK A01 T10181106  RH  051%=      5-min Rain = 0
KBR1 111842Z 03026KT M02/M11 A3049 RMK A01 T10181106  RH  051%=      5-min Rain = 0
KBR1 111843Z 02023G30KT M02/M11 A3049 RMK A01 T10191107  RH  051%=      5-min Rain = 0
KBR1 111844Z 02027G33KT M02/M11 A3048 RMK A01 T10181106  RH  051%=      5-min Rain = 0
KBR1 111845Z 02023G29KT M02/M11 A3049 RMK A01 T10171106  RH  051%=      5-min Rain = 0
KBR1 111846Z 02022KT M02/M11 A3049 RMK A01 T10181106  RH  051%=      5-min Rain = 0
KBR1 111847Z 02021KT M02/M11 A3049 RMK A01 T10191106  RH  052%=      5-min Rain = 0
KBR1 111848Z 03024KT M02/M11 A3048 RMK A01 T10181105  RH  052%=      5-min Rain = 0
KBR1 111849Z 03024KT M02/M11 A3048 RMK A01 T10181105  RH  051%=      5-min Rain = 0
KBR1 111850Z 02021KT M02/M10 A3049 RMK A01 T10161103  RH  052%=      5-min Rain = 0
KBR1 111851Z 02022G28KT M01/M10 A3049 RMK A01 T10131102  RH  051%=      5-min Rain = 0
KBR1 111852Z 03025KT M02/M11 A3048 RMK A01 T10151105  RH  050%=      5-min Rain = 0
KBR1 111853Z 02024KT M02/M11 A3048 RMK A01 T10171106  RH  051%=      5-min Rain = 0
KBR1 111854Z 02025G30KT M02/M11 A3048 RMK A01 T10211108  RH  051%=      5-min Rain = 0
KBR1 111855Z 02023KT M02/M11 A3048 RMK A01 T10211106  RH  052%=      5-min Rain = 0
KBR1 111856Z 03023G28KT M02/M10 A3048 RMK A01 T10171102  RH  052%=      5-min Rain = 0
KBR1 111857Z 03024G29KT M01/M10 A3048 RMK A01 T10141103  RH  051%=      5-min Rain = 0
KBR1 111858Z 02024G29KT M02/M10 A3048 RMK A01 T10151104  RH  051%=      5-min Rain = 0
KBR1 111859Z 03022KT M02/M10 A3048 RMK A01 T10151104  RH  051%=      5-min Rain = 0
KBR1 111900Z 02026G31KT M02/M11 A3048 RMK A01 T10161105  RH  051%=      5-min Rain = 0
KBR1 111901Z 02023G30KT M02/M11 A3048 RMK A01 T10191107  RH  051%=      5-min Rain = 0
KBR1 111902Z 04024KT M02/M11 A3047 RMK A01 T10181105  RH  052%=      5-min Rain = 0
KBR1 111903Z 03026KT M02/M11 A3048 RMK A01 T10181106  RH  051%=      5-min Rain = 0
KBR1 111904Z 03025KT M02/M11 A3048 RMK A01 T10211107  RH  052%=      5-min Rain = 0
KBR1 111905Z 03023KT M02/M11 A3048 RMK A01 T10221107  RH  052%=      5-min Rain = 0
KBR1 111906Z 03024KT M02/M11 A3048 RMK A01 T10211105  RH  053%=      5-min Rain = 0
KBR1 111907Z 04021KT M02/M11 A3048 RMK A01 T10211105  RH  053%=      5-min Rain = 0
KBR1 111908Z 03024G31KT M02/M11 A3048 RMK A01 T10211105  RH  053%=      5-min Rain = 0
KBR1 111909Z 02025KT M02/M10 A3048 RMK A01 T10191103  RH  052%=      5-min Rain = 0
KBR1 111910Z 03023KT M02/M11 A3048 RMK A01 T10191105  RH  052%=      5-min Rain = 0
KBR1 111911Z 03022KT M02/M10 A3048 RMK A01 T10171104  RH  052%=      5-min Rain = 0
KBR1 111912Z 03024KT M02/M11 A3048 RMK A01 T10161105  RH  051%=      5-min Rain = 0
KBR1 111913Z 02024KT M02/M11 A3048 RMK A01 T10161105  RH  051%=      5-min Rain = 0
KBR1 111914Z 03023KT M02/M11 A3048 RMK A01 T10201108  RH  051%=      5-min Rain = 0
KBR1 111915Z 03023KT M02/M11 A3048 RMK A01 T10211107  RH  052%=      5-min Rain = 0
KBR1 111916Z 03025KT M02/M11 A3048 RMK A01 T10201107  RH  051%=      5-min Rain = 0
KBR1 111917Z 02023G29KT M02/M11 A3048 RMK A01 T10201107  RH  051%=      5-min Rain = 0
KBR1 111918Z 03023KT M02/M11 A3048 RMK A01 T10171105  RH  051%=      5-min Rain = 0
KBR1 111919Z 02021G27KT M02/M11 A3048 RMK A01 T10161105  RH  051%=      5-min Rain = 0
KBR1 111920Z 02022KT M02/M11 A3048 RMK A01 T10161105  RH  050%=      5-min Rain = 0
KBR1 111921Z 02022KT M02/M11 A3048 RMK A01 T10181108  RH  050%=      5-min Rain = 0
KBR1 111922Z 02021KT M02/M11 A3048 RMK A01 T10211109  RH  051%=      5-min Rain = 0
KBR1 111923Z 02025G30KT M02/M11 A3048 RMK A01 T10191106  RH  051%=      5-min Rain = 0
KBR1 111924Z 02020G25KT M02/M11 A3048 RMK A01 T10171106  RH  051%=      5-min Rain = 0
KBR1 111925Z 02022KT M02/M11 A3048 RMK A01 T10161107  RH  050%=      5-min Rain = 0
KBR1 111926Z 03019G24KT M02/M11 A3048 RMK A01 T10171106  RH  050%=      5-min Rain = 0
KBR1 111927Z 01021KT M01/M11 A3048 RMK A01 T10141105  RH  050%=      5-min Rain = 0
KBR1 111928Z 01021KT M01/M11 A3048 RMK A01 T10141107  RH  049%=      5-min Rain = 0
KBR1 111929Z 02024G30KT M02/M11 A3048 RMK A01 T10171109  RH  049%=      5-min Rain = 0
KBR1 111930Z 01023KT M02/M11 A3048 RMK A01 T10171108  RH  050%=      5-min Rain = 0
KBR1 111931Z 02017KT M02/M11 A3048 RMK A01 T10171108  RH  050%=      5-min Rain = 0
KBR1 111932Z 03021KT M01/M11 A3048 RMK A01 T10141105  RH  050%=      5-min Rain = 0
KBR1 111933Z 02020KT M01/M11 A3048 RMK A01 T10131106  RH  049%=      5-min Rain = 0
KBR1 111934Z 02018G25KT M01/M11 A3048 RMK A01 T10131107  RH  049%=      5-min Rain = 0
KBR1 111935Z 02026KT M01/M11 A3048 RMK A01 T10121106  RH  049%=      5-min Rain = 0
KBR1 111936Z 02022KT M02/M11 A3048 RMK A01 T10151110  RH  048%=      5-min Rain = 0
KBR1 111937Z 02020KT M02/M11 A3048 RMK A01 T10151109  RH  049%=      5-min Rain = 0
KBR1 111938Z 03021G26KT M01/M11 A3048 RMK A01 T10121107  RH  048%=      5-min Rain = 0
KBR1 111939Z 02022KT M01/M11 A3048 RMK A01 T10111108  RH  048%=      5-min Rain = 0
KBR1 111940Z 03017KT M01/M11 A3048 RMK A01 T10141110  RH  048%=      5-min Rain = 0
KBR1 111941Z 03021G26KT M01/M11 A3048 RMK A01 T10121108  RH  048%=      5-min Rain = 0
KBR1 111942Z 02019KT M01/M11 A3048 RMK A01 T10121109  RH  048%=      5-min Rain = 0
KBR1 111943Z 03019G24KT M01/M11 A3048 RMK A01 T10111107  RH  048%=      5-min Rain = 0
KBR1 111944Z 03019KT M01/M11 A3048 RMK A01 T10101108  RH  047%=      5-min Rain = 0
KBR1 111945Z 02018KT M01/M11 A3048 RMK A01 T10131110  RH  047%=      5-min Rain = 0
KBR1 111946Z 03020KT M01/M11 A3048 RMK A01 T10131109  RH  048%=      5-min Rain = 0
KBR1 111947Z 02021KT M01/M11 A3048 RMK A01 T10111108  RH  048%=      5-min Rain = 0
KBR1 111948Z 02022KT M01/M11 A3048 RMK A01 T10111109  RH  047%=      5-min Rain = 0
KBR1 111949Z 03019KT M01/M11 A3048 RMK A01 T10121110  RH  047%=      5-min Rain = 0
KBR1 111950Z 02019G25KT M01/M11 A3048 RMK A01 T10121110  RH  047%=      5-min Rain = 0
KBR1 111951Z 01022KT M01/M11 A3048 RMK A01 T10111109  RH  047%=      5-min Rain = 0
KBR1 111952Z 02025KT M01/M11 A3048 RMK A01 T10121111  RH  047%=      5-min Rain = 0
KBR1 111953Z 01023KT M01/M11 A3048 RMK A01 T10131111  RH  047%=      5-min Rain = 0
KBR1 111954Z 01024KT M01/M11 A3048 RMK A01 T10131111  RH  047%=      5-min Rain = 0
KBR1 111955Z 01022KT M01/M11 A3048 RMK A01 T10131111  RH  047%=      5-min Rain = 0
KBR1 111956Z 00021KT M01/M11 A3048 RMK A01 T10131111  RH  047%=      5-min Rain = 0
KBR1 111957Z 01021KT M01/M11 A3048 RMK A01 T10141111  RH  047%=      5-min Rain = 0
KBR1 111958Z 01020G25KT M02/M11 A3048 RMK A01 T10151111  RH  048%=      5-min Rain = 0
KBR1 111959Z 04017KT M01/M11 A3048 RMK A01 T10131110  RH  048%=      5-min Rain = 0
KBR1 112000Z 03016G22KT M01/M11 A3048 RMK A01 T10111109  RH  047%=      5-min Rain = 0
KBR1 112001Z 03019KT M01/M11 A3048 RMK A01 T10101110  RH  047%=      5-min Rain = 0
KBR1 112002Z 03019G24KT M01/M11 A3048 RMK A01 T10101110  RH  047%=      5-min Rain = 0
KBR1 112003Z 03018KT M01/M11 A3048 RMK A01 T10101111  RH  046%=      5-min Rain = 0
KBR1 112004Z 01019KT M01/M11 A3048 RMK A01 T10101111  RH  046%=      5-min Rain = 0
KBR1 112005Z 02019G24KT M01/M11 A3048 RMK A01 T10091110  RH  046%=      5-min Rain = 0
KBR1 112006Z 02019KT M01/M11 A3048 RMK A01 T10071109  RH  046%=      5-min Rain = 0
KBR1 112007Z 02023KT M01/M11 A3048 RMK A01 T10091111  RH  046%=      5-min Rain = 0
KBR1 112008Z 01021KT M01/M11 A3048 RMK A01 T10101112  RH  046%=      5-min Rain = 0
KBR1 112009Z 03016KT M01/M11 A3048 RMK A01 T10081110  RH  046%=      5-min Rain = 0
KBR1 112010Z 03019G28KT M00/M11 A3048 RMK A01 T10031107  RH  045%=      5-min Rain = 0
KBR1 112011Z 02021G26KT M00/M11 A3048 RMK A01 T10031110  RH  044%=      5-min Rain = 0
KBR1 112012Z 02021KT M01/M11 A3048 RMK A01 T10061112  RH  044%=      5-min Rain = 0
KBR1 112013Z 03019KT M01/M11 A3048 RMK A01 T10081113  RH  045%=      5-min Rain = 0
KBR1 112014Z 03017KT M01/M11 A3048 RMK A01 T10071111  RH  045%=      5-min Rain = 0
KBR1 112015Z 04021KT M01/M11 A3048 RMK A01 T10051110  RH  045%=      5-min Rain = 0
KBR1 112016Z 03018KT M01/M11 A3048 RMK A01 T10081113  RH  045%=      5-min Rain = 0
KBR1 112017Z 03022G30KT M01/M11 A3048 RMK A01 T10101113  RH  045%=      5-min Rain = 0
KBR1 112018Z 03021G26KT M01/M11 A3048 RMK A01 T10081111  RH  046%=      5-min Rain = 0
KBR1 112019Z 03018KT M01/M11 A3048 RMK A01 T10061110  RH  045%=      5-min Rain = 0
KBR1 112020Z 03016KT M01/M11 A3048 RMK A01 T10051110  RH  045%=      5-min Rain = 0
KBR1 112021Z 03021KT M00/M11 A3048 RMK A01 T10031110  RH  044%=      5-min Rain = 0
KBR1 112022Z 02020KT M01/M11 A3048 RMK A01 T10051113  RH  044%=      5-min Rain = 0
KBR1 112023Z 02016G22KT M01/M11 A3048 RMK A01 T10081113  RH  045%=      5-min Rain = 0
KBR1 112024Z 03025KT M01/M11 A3048 RMK A01 T10051110  RH  045%=      5-min Rain = 0
KBR1 112025Z 03021KT M01/M11 A3048 RMK A01 T10061113  RH  044%=      5-min Rain = 0
KBR1 112026Z 04020KT M01/M11 A3048 RMK A01 T10081114  RH  045%=      5-min Rain = 0
KBR1 112027Z 04018KT M01/M11 A3048 RMK A01 T10071112  RH  045%=      5-min Rain = 0
KBR1 112028Z 03018G23KT M01/M11 A3048 RMK A01 T10061113  RH  044%=      5-min Rain = 0
KBR1 112029Z 03020KT M01/M11 A3048 RMK A01 T10071113  RH  044%=      5-min Rain = 0
KBR1 112030Z 04016G21KT M01/M11 A3048 RMK A01 T10071113  RH  045%=      5-min Rain = 0
KBR1 112031Z 03020KT M01/M11 A3048 RMK A01 T10061112  RH  044%=      5-min Rain = 0
KBR1 112032Z 03020KT M01/M11 A3048 RMK A01 T10061113  RH  044%=      5-min Rain = 0
KBR1 112033Z 03021KT M01/M11 A3048 RMK A01 T10071114  RH  044%=      5-min Rain = 0
KBR1 112034Z 04022KT M01/M11 A3048 RMK A01 T10071114  RH  044%=      5-min Rain = 0
KBR1 112035Z 03021KT M01/M11 A3048 RMK A01 T10081114  RH  044%=      5-min Rain = 0
KBR1 112036Z 03021KT M01/M11 A3048 RMK A01 T10081114  RH  045%=      5-min Rain = 0
KBR1 112037Z 03019KT M01/M12 A3048 RMK A01 T10101115  RH  045%=      5-min Rain = 0
KBR1 112038Z 02018KT M01/M11 A3049 RMK A01 T10091114  RH  045%=      5-min Rain = 0
KBR1 112039Z 03016G21KT M01/M11 A3049 RMK A01 T10061112  RH  045%=      5-min Rain = 0
KBR1 112040Z 03013KT M01/M11 A3048 RMK A01 T10061113  RH  044%=      5-min Rain = 0
KBR1 112041Z 03017G22KT M01/M11 A3048 RMK A01 T10051111  RH  044%=      5-min Rain = 0
KBR1 112042Z 03023KT 00/11 A3048 RMK A01 T00000-110  RH  043%=      5-min Rain = 0
KBR1 112043Z 01019KT M00/M12 A3048 RMK A01 T10031115  RH  043%=      5-min Rain = 0
KBR1 112044Z 03016KT M01/M12 A3048 RMK A01 T10051115  RH  043%=      5-min Rain = 0
KBR1 112045Z 03018G23KT M00/M11 A3048 RMK A01 T10041112  RH  044%=      5-min Rain = 0
KBR1 112046Z 03020KT M00/M11 A3048 RMK A01 T10021112  RH  043%=      5-min Rain = 0
KBR1 112047Z 03020KT M00/M11 A3048 RMK A01 T10041114  RH  043%=      5-min Rain = 0
KBR1 112048Z 02019KT M00/M11 A3048 RMK A01 T10041114  RH  043%=      5-min Rain = 0
KBR1 112049Z 03014KT M01/M11 A3048 RMK A01 T10051114  RH  043%=      5-min Rain = 0
KBR1 112050Z 03020KT M00/M11 A3048 RMK A01 T10021112  RH  043%=      5-min Rain = 0
KBR1 112051Z 03017KT M00/M11 A3048 RMK A01 T10011113  RH  043%=      5-min Rain = 0
KBR1 112052Z 03018G23KT M00/M11 A3048 RMK A01 T10011113  RH  043%=      5-min Rain = 0
KBR1 112053Z 02020KT M00/M11 A3048 RMK A01 T10011113  RH  042%=      5-min Rain = 0
KBR1 112054Z 01019KT M00/M11 A3048 RMK A01 T10011114  RH  042%=      5-min Rain = 0
KBR1 112055Z 01021KT 00/11 A3048 RMK A01 T00-00-113  RH  042%=      5-min Rain = 0
KBR1 112056Z 02023KT M00/M11 A3047 RMK A01 T10011114  RH  042%=      5-min Rain = 0
KBR1 112057Z 02024KT 00/11 A3047 RMK A01 T00-00-114  RH  042%=      5-min Rain = 0
KBR1 112058Z 01021KT M00/M12 A3048 RMK A01 T10021115  RH  042%=      5-min Rain = 0
KBR1 112059Z 01021KT M00/M11 A3048 RMK A01 T10021114  RH  043%=      5-min Rain = 0
KBR1 112100Z 02024KT M00/M12 A3048 RMK A01 T10021115  RH  042%=      5-min Rain = 0
KBR1 112101Z 02021G26KT M00/M11 A3048 RMK A01 T10021114  RH  043%=      5-min Rain = 0
KBR1 112102Z 02018KT M00/M12 A3048 RMK A01 T10021115  RH  043%=      5-min Rain = 0
KBR1 112103Z 03021KT M00/M11 A3048 RMK A01 T10021114  RH  043%=      5-min Rain = 0
KBR1 112104Z 04016G21KT 00/11 A3048 RMK A01 T00-00-113  RH  042%=      5-min Rain = 0
KBR1 112105Z 03021G26KT 00/M11 A3048 RMK A01 T00031112  RH  042%=      5-min Rain = 0
KBR1 112106Z 03017G22KT 00/M11 A3048 RMK A01 T00011114  RH  042%=      5-min Rain = 0
KBR1 112107Z 03016G23KT M00/M12 A3048 RMK A01 T10021116  RH  042%=      5-min Rain = 0
KBR1 112108Z 02017G28KT M00/M11 A3048 RMK A01 T10021114  RH  043%=      5-min Rain = 0
KBR1 112109Z 01023KT 00/11 A3048 RMK A01 T00000-113  RH  042%=      5-min Rain = 0
KBR1 112110Z 02018KT M00/M12 A3048 RMK A01 T10011115  RH  042%=      5-min Rain = 0
KBR1 112111Z 03019KT 00/11 A3048 RMK A01 T00-00-114  RH  042%=      5-min Rain = 0
KBR1 112112Z 04017KT M00/M12 A3048 RMK A01 T10011116  RH  042%=      5-min Rain = 0
KBR1 112113Z 04017KT M00/M12 A3048 RMK A01 T10011115  RH  042%=      5-min Rain = 0
KBR1 112114Z 03019G25KT M00/M12 A3048 RMK A01 T10011115  RH  042%=      5-min Rain = 0
KBR1 112115Z 03019KT 00/12 A3048 RMK A01 T00-00-115  RH  042%=      5-min Rain = 0
KBR1 112116Z 03018G23KT 00/12 A3048 RMK A01 T00000-115  RH  042%=      5-min Rain = 0
KBR1 112117Z 04021KT 00/M12 A3048 RMK A01 T00011115  RH  041%=      5-min Rain = 0
KBR1 112118Z 04019KT 00/12 A3048 RMK A01 T00-00-116  RH  041%=      5-min Rain = 0
KBR1 112119Z 04022KT M00/M12 A3048 RMK A01 T10011116  RH  041%=      5-min Rain = 0
KBR1 112120Z 03023KT M00/M12 A3048 RMK A01 T10021117  RH  042%=      5-min Rain = 0
KBR1 112121Z 02018KT M00/M12 A3049 RMK A01 T10031118  RH  042%=      5-min Rain = 0
KBR1 112122Z 02018KT M00/M12 A3048 RMK A01 T10031117  RH  042%=      5-min Rain = 0
KBR1 112123Z 03018KT M00/M12 A3048 RMK A01 T10031117  RH  042%=      5-min Rain = 0
KBR1 112124Z 02017KT M00/M12 A3049 RMK A01 T10031117  RH  042%=      5-min Rain = 0
KBR1 112125Z 02017KT M00/M12 A3049 RMK A01 T10031117  RH  042%=      5-min Rain = 0
KBR1 112126Z 03019KT M00/M12 A3048 RMK A01 T10031116  RH  042%=      5-min Rain = 0
KBR1 112127Z 03018KT M00/M12 A3048 RMK A01 T10021117  RH  042%=      5-min Rain = 0
KBR1 112128Z 03019KT M00/M12 A3048 RMK A01 T10011116  RH  041%=      5-min Rain = 0
KBR1 112129Z 01018KT M00/M12 A3049 RMK A01 T10011117  RH  041%=      5-min Rain = 0
KBR1 112130Z 01019KT M00/M12 A3049 RMK A01 T10011117  RH  041%=      5-min Rain = 0
KBR1 112131Z 02019KT M00/M12 A3049 RMK A01 T10021118  RH  041%=      5-min Rain = 0
KBR1 112132Z 03019KT M00/M12 A3048 RMK A01 T10021118  RH  041%=      5-min Rain = 0
KBR1 112133Z 03018KT M00/M12 A3049 RMK A01 T10011117  RH  041%=      5-min Rain = 0
KBR1 112134Z 03017KT 00/12 A3049 RMK A01 T00-00-117  RH  041%=      5-min Rain = 0
KBR1 112135Z 04019KT 00/M12 A3048 RMK A01 T00011117  RH  041%=      5-min Rain = 0
KBR1 112136Z 03019KT M00/M12 A3048 RMK A01 T10011119  RH  041%=      5-min Rain = 0
KBR1 112137Z 03016KT M00/M12 A3048 RMK A01 T10021118  RH  041%=      5-min Rain = 0
KBR1 112138Z 03020KT 00/12 A3048 RMK A01 T00000-117  RH  041%=      5-min Rain = 0
KBR1 112139Z 04019KT 00/12 A3049 RMK A01 T00-00-118  RH  041%=      5-min Rain = 0
KBR1 112140Z 04017G22KT M00/M12 A3048 RMK A01 T10021119  RH  041%=      5-min Rain = 0
KBR1 112141Z 04017KT M00/M12 A3049 RMK A01 T10031119  RH  041%=      5-min Rain = 0
KBR1 112142Z 03016KT M00/M12 A3049 RMK A01 T10031118  RH  041%=      5-min Rain = 0
KBR1 112143Z 03017KT M00/M12 A3049 RMK A01 T10021118  RH  041%=      5-min Rain = 0
KBR1 112144Z 02018KT M00/M12 A3049 RMK A01 T10021117  RH  041%=      5-min Rain = 0
KBR1 112145Z 02017KT M00/M12 A3049 RMK A01 T10011117  RH  041%=      5-min Rain = 0
KBR1 112146Z 02016KT M00/M12 A3049 RMK A01 T10011117  RH  041%=      5-min Rain = 0
KBR1 112147Z 02020KT M00/M12 A3049 RMK A01 T10011117  RH  041%=      5-min Rain = 0
KBR1 112148Z 03020KT M00/M12 A3049 RMK A01 T10011117  RH  041%=      5-min Rain = 0
KBR1 112149Z 03017G22KT M00/M12 A3049 RMK A01 T10011118  RH  041%=      5-min Rain = 0
KBR1 112150Z 03016KT M00/M12 A3049 RMK A01 T10011118  RH  041%=      5-min Rain = 0
KBR1 112151Z 02022G27KT M00/M12 A3049 RMK A01 T10011117  RH  041%=      5-min Rain = 0
KBR1 112152Z 02022KT M00/M12 A3049 RMK A01 T10011117  RH  041%=      5-min Rain = 0
KBR1 112153Z 03019KT M00/M12 A3049 RMK A01 T10021118  RH  041%=      5-min Rain = 0
KBR1 112154Z 02016KT M00/M12 A3049 RMK A01 T10041118  RH  042%=      5-min Rain = 0
KBR1 112155Z 02016G22KT M00/M12 A3049 RMK A01 T10031117  RH  042%=      5-min Rain = 0
KBR1 112156Z 02020KT M00/M12 A3049 RMK A01 T10011117  RH  041%=      5-min Rain = 0
KBR1 112157Z 02019KT M00/M12 A3049 RMK A01 T10011116  RH  042%=      5-min Rain = 0
KBR1 112158Z 02020KT 00/12 A3049 RMK A01 T00-00-116  RH  041%=      5-min Rain = 0
KBR1 112159Z 03017G22KT M00/M12 A3049 RMK A01 T10011117  RH  041%=      5-min Rain = 0
KBR1 112200Z 02017KT M00/M12 A3049 RMK A01 T10011117  RH  041%=      5-min Rain = 0
KBR1 112201Z 02021KT M00/M12 A3049 RMK A01 T10011116  RH  042%=      5-min Rain = 0
KBR1 112202Z 03023KT M00/M12 A3049 RMK A01 T10021117  RH  042%=      5-min Rain = 0
KBR1 112203Z 03019KT M00/M12 A3049 RMK A01 T10031117  RH  042%=      5-min Rain = 0
KBR1 112204Z 03019KT M00/M12 A3049 RMK A01 T10031117  RH  042%=      5-min Rain = 0
KBR1 112205Z 03016G24KT M00/M12 A3049 RMK A01 T10021116  RH  042%=      5-min Rain = 0
KBR1 112206Z 02020KT 00/12 A3049 RMK A01 T00-00-115  RH  042%=      5-min Rain = 0
KBR1 112207Z 02019KT M00/M12 A305 RMK A01 T10011116  RH  042%=      5-min Rain = 0
KBR1 112208Z 02015G20KT M00/M12 A305 RMK A01 T10021116  RH  042%=      5-min Rain = 0
KBR1 112209Z 03019G24KT M00/M11 A305 RMK A01 T10011114  RH  042%=      5-min Rain = 0
KBR1 112210Z 03022KT M00/M12 A3049 RMK A01 T10021115  RH  042%=      5-min Rain = 0
KBR1 112211Z 02020KT M00/M12 A305 RMK A01 T10031117  RH  042%=      5-min Rain = 0
KBR1 112212Z 02018KT M00/M12 A305 RMK A01 T10031116  RH  042%=      5-min Rain = 0
KBR1 112213Z 02018G23KT M00/M12 A305 RMK A01 T10031116  RH  042%=      5-min Rain = 0
KBR1 112214Z 03015KT M00/M12 A305 RMK A01 T10021116  RH  042%=      5-min Rain = 0
KBR1 112215Z 03017G24KT M00/M12 A305 RMK A01 T10021115  RH  042%=      5-min Rain = 0
KBR1 112216Z 03019G24KT M00/M12 A305 RMK A01 T10021116  RH  042%=      5-min Rain = 0
KBR1 112217Z 02020KT M00/M12 A305 RMK A01 T10031117  RH  042%=      5-min Rain = 0
KBR1 112218Z 02017KT M01/M12 A305 RMK A01 T10051117  RH  042%=      5-min Rain = 0
KBR1 112219Z 03019KT M01/M12 A305 RMK A01 T10051117  RH  043%=      5-min Rain = 0
KBR1 112220Z 03020KT M01/M12 A305 RMK A01 T10051116  RH  043%=      5-min Rain = 0
KBR1 112221Z 03019KT M01/M12 A305 RMK A01 T10051116  RH  043%=      5-min Rain = 0
KBR1 112222Z 03019KT M00/M12 A305 RMK A01 T10041116  RH  043%=      5-min Rain = 0
KBR1 112223Z 03018KT M00/M12 A305 RMK A01 T10041116  RH  043%=      5-min Rain = 0
KBR1 112224Z 03019KT M00/M12 A305 RMK A01 T10041116  RH  043%=      5-min Rain = 0
KBR1 112225Z 03016KT M00/M12 A3051 RMK A01 T10041116  RH  043%=      5-min Rain = 0
KBR1 112226Z 03018KT M00/M12 A3051 RMK A01 T10041116  RH  043%=      5-min Rain = 0
KBR1 112227Z 03018KT M00/M12 A3051 RMK A01 T10041116  RH  043%=      5-min Rain = 0
KBR1 112228Z 03018KT M00/M12 A3051 RMK A01 T10041116  RH  042%=      5-min Rain = 0
KBR1 112229Z 03018KT M01/M12 A3051 RMK A01 T10051117  RH  043%=      5-min Rain = 0
KBR1 112230Z 04017KT M01/M12 A3051 RMK A01 T10061116  RH  043%=      5-min Rain = 0
KBR1 112231Z 03019KT M01/M12 A3051 RMK A01 T10061116  RH  043%=      5-min Rain = 0
KBR1 112232Z 03018KT M01/M12 A3051 RMK A01 T10061116  RH  043%=      5-min Rain = 0
KBR1 112233Z 02018KT M01/M12 A3051 RMK A01 T10061116  RH  043%=      5-min Rain = 0
KBR1 112234Z 01018KT M01/M12 A3051 RMK A01 T10061116  RH  043%=      5-min Rain = 0
KBR1 112235Z 01019KT M01/M12 A3051 RMK A01 T10051116  RH  043%=      5-min Rain = 0
KBR1 112236Z 02017KT M01/M12 A3051 RMK A01 T10061117  RH  043%=      5-min Rain = 0
KBR1 112237Z 02020KT M01/M12 A3051 RMK A01 T10051117  RH  043%=      5-min Rain = 0
KBR1 112238Z 02021KT M01/M12 A3051 RMK A01 T10061118  RH  043%=      5-min Rain = 0
KBR1 112239Z 02019KT M01/M12 A3051 RMK A01 T10071117  RH  043%=      5-min Rain = 0
KBR1 112240Z 02017KT M01/M12 A3051 RMK A01 T10071117  RH  043%=      5-min Rain = 0
KBR1 112241Z 02018KT M01/M12 A3051 RMK A01 T10071116  RH  043%=      5-min Rain = 0
KBR1 112242Z 02016KT M01/M12 A3051 RMK A01 T10081117  RH  043%=      5-min Rain = 0
KBR1 112243Z 02017KT M01/M12 A3051 RMK A01 T10081117  RH  043%=      5-min Rain = 0
KBR1 112244Z 02017KT M01/M12 A3051 RMK A01 T10081117  RH  044%=      5-min Rain = 0
KBR1 112245Z 01019KT M01/M12 A3051 RMK A01 T10081117  RH  043%=      5-min Rain = 0
KBR1 112246Z 01019KT M01/M12 A3051 RMK A01 T10071117  RH  043%=      5-min Rain = 0
KBR1 112247Z 01016KT M01/M12 A3051 RMK A01 T10081118  RH  043%=      5-min Rain = 0
KBR1 112248Z 01016KT M01/M12 A3051 RMK A01 T10081118  RH  043%=      5-min Rain = 0
KBR1 112249Z 03019KT M01/M12 A3051 RMK A01 T10091118  RH  044%=      5-min Rain = 0
KBR1 112250Z 02019KT M01/M12 A3051 RMK A01 T10091118  RH  044%=      5-min Rain = 0
KBR1 112251Z 02020KT M01/M12 A3051 RMK A01 T10091118  RH  044%=      5-min Rain = 0
KBR1 112252Z 02018KT M01/M12 A3051 RMK A01 T10101118  RH  044%=      5-min Rain = 0
KBR1 112253Z 02017KT M01/M12 A3051 RMK A01 T10111118  RH  044%=      5-min Rain = 0
KBR1 112254Z 02020KT M01/M12 A3051 RMK A01 T10121118  RH  044%=      5-min Rain = 0
KBR1 112255Z 03019KT M01/M12 A3051 RMK A01 T10111118  RH  044%=      5-min Rain = 0
KBR1 112256Z 01019G24KT M01/M12 A3051 RMK A01 T10101118  RH  044%=      5-min Rain = 0
KBR1 112257Z 01019KT M01/M12 A3051 RMK A01 T10101118  RH  044%=      5-min Rain = 0
KBR1 112258Z 02018KT M01/M12 A3051 RMK A01 T10101119  RH  044%=      5-min Rain = 0
KBR1 112259Z 02017G22KT M01/M12 A3051 RMK A01 T10101119  RH  044%=      5-min Rain = 0
KBR1 112300Z 02015KT M01/M12 A3051 RMK A01 T10111119  RH  044%=      5-min Rain = 0
KBR1 112301Z 03016KT M01/M12 A3051 RMK A01 T10101119  RH  044%=      5-min Rain = 0
KBR1 112302Z 03019KT M01/M12 A3051 RMK A01 T10101119  RH  044%=      5-min Rain = 0
KBR1 112303Z 02016KT M01/M12 A3052 RMK A01 T10111120  RH  044%=      5-min Rain = 0
KBR1 112304Z 02019KT M01/M12 A3052 RMK A01 T10121120  RH  044%=      5-min Rain = 0
KBR1 112305Z 02018KT M01/M12 A3052 RMK A01 T10131120  RH  044%=      5-min Rain = 0
KBR1 112306Z 02018KT M01/M12 A3052 RMK A01 T10131120  RH  044%=      5-min Rain = 0
KBR1 112307Z 02016KT M01/M12 A3052 RMK A01 T10131120  RH  044%=      5-min Rain = 0
KBR1 112308Z 02016KT M01/M12 A3052 RMK A01 T10131120  RH  044%=      5-min Rain = 0
KBR1 112309Z 03018KT M01/M12 A3052 RMK A01 T10131120  RH  044%=      5-min Rain = 0
KBR1 112310Z 03016KT M01/M12 A3052 RMK A01 T10141121  RH  044%=      5-min Rain = 0
KBR1 112311Z 03015KT M01/M12 A3052 RMK A01 T10141121  RH  044%=      5-min Rain = 0
KBR1 112312Z 03014KT M01/M12 A3052 RMK A01 T10141121  RH  044%=      5-min Rain = 0
KBR1 112313Z 03017KT M01/M12 A3052 RMK A01 T10141121  RH  044%=      5-min Rain = 0
KBR1 112314Z 03014KT M02/M12 A3052 RMK A01 T10151121  RH  044%=      5-min Rain = 0
KBR1 112315Z 02017KT M02/M12 A3052 RMK A01 T10151121  RH  044%=      5-min Rain = 0
KBR1 112316Z 03016KT M02/M12 A3053 RMK A01 T10151121  RH  044%=      5-min Rain = 0
KBR1 112317Z 03014KT M02/M12 A3053 RMK A01 T10151120  RH  045%=      5-min Rain = 0
KBR1 112318Z 03015KT M02/M12 A3053 RMK A01 T10161120  RH  045%=      5-min Rain = 0
KBR1 112319Z 03015KT M02/M12 A3053 RMK A01 T10161120  RH  045%=      5-min Rain = 0
KBR1 112320Z 02016KT M02/M12 A3053 RMK A01 T10171120  RH  045%=      5-min Rain = 0
KBR1 112321Z 02015KT M02/M12 A3053 RMK A01 T10171120  RH  045%=      5-min Rain = 0
KBR1 112322Z 03015KT M02/M12 A3053 RMK A01 T10171119  RH  046%=      5-min Rain = 0
KBR1 112323Z 03013KT M02/M12 A3053 RMK A01 T10171119  RH  046%=      5-min Rain = 0
KBR1 112324Z 03016KT M02/M12 A3053 RMK A01 T10181119  RH  046%=      5-min Rain = 0
KBR1 112325Z 03016KT M02/M12 A3053 RMK A01 T10181119  RH  046%=      5-min Rain = 0
KBR1 112326Z 03017KT M02/M12 A3053 RMK A01 T10181119  RH  046%=      5-min Rain = 0
KBR1 112327Z 02017KT M02/M12 A3053 RMK A01 T10191119  RH  046%=      5-min Rain = 0
KBR1 112328Z 02017KT M02/M12 A3053 RMK A01 T10191119  RH  046%=      5-min Rain = 0
KBR1 112329Z 02016KT M02/M12 A3053 RMK A01 T10191118  RH  047%=      5-min Rain = 0
KBR1 112330Z 02017G22KT M02/M12 A3053 RMK A01 T10201119  RH  047%=      5-min Rain = 0
KBR1 112331Z 02016KT M02/M12 A3053 RMK A01 T10201119  RH  047%=      5-min Rain = 0
KBR1 112332Z 03017KT M02/M12 A3053 RMK A01 T10201118  RH  047%=      5-min Rain = 0
KBR1 112333Z 03016KT M02/M12 A3053 RMK A01 T10211118  RH  047%=      5-min Rain = 0
KBR1 112334Z 02016KT M02/M12 A3053 RMK A01 T10211118  RH  047%=      5-min Rain = 0
KBR1 112335Z 02016KT M02/M12 A3053 RMK A01 T10221119  RH  047%=      5-min Rain = 0
KBR1 112336Z 02016KT M02/M12 A3053 RMK A01 T10221118  RH  048%=      5-min Rain = 0
KBR1 112337Z 02014G19KT M02/M12 A3053 RMK A01 T10221119  RH  048%=      5-min Rain = 0
KBR1 112338Z 01015KT M02/M12 A3053 RMK A01 T10231118  RH  048%=      5-min Rain = 0
KBR1 112339Z 02015KT M02/M12 A3053 RMK A01 T10231118  RH  048%=      5-min Rain = 0
KBR1 112340Z 02014KT M02/M12 A3053 RMK A01 T10231118  RH  048%=      5-min Rain = 0
KBR1 112341Z 02014KT M02/M12 A3053 RMK A01 T10241118  RH  048%=      5-min Rain = 0
KBR1 112342Z 02014KT M02/M12 A3053 RMK A01 T10241118  RH  048%=      5-min Rain = 0
KBR1 112343Z 02015KT M03/M12 A3054 RMK A01 T10251118  RH  049%=      5-min Rain = 0
KBR1 112344Z 02015KT M03/M12 A3054 RMK A01 T10251118  RH  049%=      5-min Rain = 0
KBR1 112345Z 02014KT M03/M12 A3054 RMK A01 T10251118  RH  049%=      5-min Rain = 0
KBR1 112346Z 02012KT M03/M12 A3054 RMK A01 T10261118  RH  049%=      5-min Rain = 0
KBR1 112347Z 02015KT M03/M12 A3054 RMK A01 T10271118  RH  049%=      5-min Rain = 0
KBR1 112348Z 01017KT M03/M12 A3054 RMK A01 T10271118  RH  049%=      5-min Rain = 0
KBR1 112349Z 01013KT M03/M12 A3054 RMK A01 T10271118  RH  050%=      5-min Rain = 0
KBR1 112350Z 01013KT M03/M12 A3054 RMK A01 T10271118  RH  050%=      5-min Rain = 0
KBR1 112351Z 01012KT M03/M12 A3054 RMK A01 T10281118  RH  050%=      5-min Rain = 0
KBR1 112352Z 02014KT M03/M12 A3054 RMK A01 T10281118  RH  050%=      5-min Rain = 0
KBR1 112353Z 01014KT M03/M12 A3054 RMK A01 T10281118  RH  050%=      5-min Rain = 0
KBR1 112354Z 01014KT M03/M12 A3054 RMK A01 T10291118  RH  050%=      5-min Rain = 0
KBR1 112355Z 01013KT M03/M12 A3054 RMK A01 T10291118  RH  050%=      5-min Rain = 0
KBR1 112356Z 01013KT M03/M12 A3055 RMK A01 T10301118  RH  050%=      5-min Rain = 0
KBR1 112357Z 01014KT M03/M12 A3054 RMK A01 T10301118  RH  051%=      5-min Rain = 0
KBR1 112358Z 01013KT M03/M12 A3055 RMK A01 T10301118  RH  051%=      5-min Rain = 0
KBR1 112359Z 02012KT M03/M12 A3055 RMK A01 T10301118  RH  051%=      5-min Rain = 0
KBR1 120000Z 01012KT M03/M12 A3055 RMK A01 T10311118  RH  051%=      5-min Rain = 0
KBR1 120001Z 01013KT M03/M12 A3055 RMK A01 T10321118  RH  051%=      5-min Rain = 0
KBR1 120002Z 02014KT M03/M12 A3054 RMK A01 T10321118  RH  051%=      5-min Rain = 0
KBR1 120003Z 01013KT M03/M12 A3055 RMK A01 T10311118  RH  051%=      5-min Rain = 0
KBR1 120004Z 02013KT M03/M12 A3055 RMK A01 T10311118  RH  051%=      5-min Rain = 0
KBR1 120005Z 02012KT M03/M12 A3055 RMK A01 T10321118  RH  051%=      5-min Rain = 0
KBR1 120006Z 02013KT M03/M12 A3055 RMK A01 T10321118  RH  051%=      5-min Rain = 0
KBR1 120007Z 02012KT M03/M12 A3055 RMK A01 T10331118  RH  051%=      5-min Rain = 0
KBR1 120008Z 02011KT M03/M12 A3055 RMK A01 T10331118  RH  052%=      5-min Rain = 0
KBR1 120009Z 02013KT M03/M12 A3055 RMK A01 T10331118  RH  052%=      5-min Rain = 0
KBR1 120010Z 02014KT M03/M12 A3055 RMK A01 T10331118  RH  052%=      5-min Rain = 0
KBR1 120011Z 02011KT M03/M12 A3055 RMK A01 T10331118  RH  052%=      5-min Rain = 0
KBR1 120012Z 02011KT M03/M12 A3055 RMK A01 T10331118  RH  052%=      5-min Rain = 0
KBR1 120013Z 02012KT M03/M12 A3055 RMK A01 T10341118  RH  052%=      5-min Rain = 0
KBR1 120014Z 02010KT M03/M12 A3055 RMK A01 T10341118  RH  052%=      5-min Rain = 0
KBR1 120015Z 02011KT M03/M12 A3055 RMK A01 T10341118  RH  052%=      5-min Rain = 0
KBR1 120016Z 02011KT M04/M12 A3056 RMK A01 T10351118  RH  052%=      5-min Rain = 0
KBR1 120017Z 02012KT M04/M12 A3056 RMK A01 T10351118  RH  053%=      5-min Rain = 0
KBR1 120018Z 02010KT M04/M12 A3056 RMK A01 T10351118  RH  053%=      5-min Rain = 0
KBR1 120019Z 02011KT M04/M12 A3055 RMK A01 T10351118  RH  053%=      5-min Rain = 0
KBR1 120020Z 02010KT M04/M12 A3055 RMK A01 T10351118  RH  053%=      5-min Rain = 0
KBR1 120021Z 02012KT M04/M12 A3055 RMK A01 T10361118  RH  053%=      5-min Rain = 0
KBR1 120022Z 02010KT M04/M12 A3056 RMK A01 T10361118  RH  053%=      5-min Rain = 0
KBR1 120023Z 02011KT M04/M12 A3056 RMK A01 T10361118  RH  053%=      5-min Rain = 0
KBR1 120024Z 02011KT M04/M12 A3056 RMK A01 T10361118  RH  053%=      5-min Rain = 0
KBR1 120025Z 02010KT M04/M12 A3056 RMK A01 T10361118  RH  053%=      5-min Rain = 0
KBR1 120026Z 03010KT M04/M12 A3056 RMK A01 T10361118  RH  053%=      5-min Rain = 0
KBR1 120027Z 02010KT M04/M12 A3056 RMK A01 T10371118  RH  053%=      5-min Rain = 0
KBR1 120028Z 02011KT M04/M12 A3056 RMK A01 T10371118  RH  053%=      5-min Rain = 0
KBR1 120029Z 02010KT M04/M12 A3056 RMK A01 T10371118  RH  053%=      5-min Rain = 0
KBR1 120030Z 02009KT M04/M12 A3056 RMK A01 T10371118  RH  054%=      5-min Rain = 0
KBR1 120031Z 02010KT M04/M12 A3056 RMK A01 T10381118  RH  054%=      5-min Rain = 0
KBR1 120032Z 02010KT M04/M12 A3056 RMK A01 T10381118  RH  054%=      5-min Rain = 0
KBR1 120033Z 02010KT M04/M12 A3056 RMK A01 T10381118  RH  054%=      5-min Rain = 0
KBR1 120034Z 03009KT M04/M12 A3056 RMK A01 T10381118  RH  054%=      5-min Rain = 0
KBR1 120035Z 02009KT M04/M12 A3056 RMK A01 T10391118  RH  054%=      5-min Rain = 0
KBR1 120036Z 02009KT M04/M12 A3056 RMK A01 T10391118  RH  054%=      5-min Rain = 0
KBR1 120037Z 02009KT M04/M12 A3056 RMK A01 T10401118  RH  054%=      5-min Rain = 0
KBR1 120038Z 02009KT M04/M12 A3056 RMK A01 T10401119  RH  054%=      5-min Rain = 0
KBR1 120039Z 02008KT M04/M12 A3056 RMK A01 T10411119  RH  055%=      5-min Rain = 0
KBR1 120040Z 02009KT M04/M12 A3056 RMK A01 T10411118  RH  055%=      5-min Rain = 0
KBR1 120041Z 02009KT M04/M12 A3057 RMK A01 T10411118  RH  055%=      5-min Rain = 0
KBR1 120042Z 03009KT M04/M12 A3057 RMK A01 T10411119  RH  055%=      5-min Rain = 0
KBR1 120043Z 02009KT M04/M12 A3057 RMK A01 T10411118  RH  055%=      5-min Rain = 0
KBR1 120044Z 02010KT M04/M12 A3057 RMK A01 T10411118  RH  055%=      5-min Rain = 0
KBR1 120045Z 02010KT M04/M12 A3057 RMK A01 T10411118  RH  055%=      5-min Rain = 0
KBR1 120046Z 02010KT M04/M12 A3057 RMK A01 T10411118  RH  055%=      5-min Rain = 0
KBR1 120047Z 02010KT M04/M12 A3057 RMK A01 T10411118  RH  055%=      5-min Rain = 0
KBR1 120048Z 02010KT M04/M12 A3057 RMK A01 T10411118  RH  055%=      5-min Rain = 0
KBR1 120049Z 03010KT M04/M12 A3057 RMK A01 T10411118  RH  055%=      5-min Rain = 0
KBR1 120050Z 03010KT M04/M12 A3057 RMK A01 T10411117  RH  055%=      5-min Rain = 0
KBR1 120051Z 03009KT M04/M12 A3057 RMK A01 T10411117  RH  055%=      5-min Rain = 0
KBR1 120052Z 03009KT M04/M12 A3057 RMK A01 T10421118  RH  055%=      5-min Rain = 0
KBR1 120053Z 03009KT M04/M12 A3057 RMK A01 T10421118  RH  056%=      5-min Rain = 0
KBR1 120054Z 03009KT M04/M12 A3057 RMK A01 T10421118  RH  056%=      5-min Rain = 0
KBR1 120055Z 02009KT M04/M12 A3057 RMK A01 T10431118  RH  056%=      5-min Rain = 0
KBR1 120056Z 03010KT M04/M12 A3057 RMK A01 T10431118  RH  056%=      5-min Rain = 0
KBR1 120057Z 02010KT M04/M12 A3057 RMK A01 T10431118  RH  056%=      5-min Rain = 0
KBR1 120058Z 02009KT M04/M12 A3057 RMK A01 T10431118  RH  056%=      5-min Rain = 0
KBR1 120059Z 02009KT M04/M12 A3057 RMK A01 T10441118  RH  056%=      5-min Rain = 0
KBR1 120100Z 02009KT M04/M12 A3057 RMK A01 T10441118  RH  056%=      5-min Rain = 0
KBR1 120101Z 02009KT M04/M12 A3057 RMK A01 T10441117  RH  056%=      5-min Rain = 0
KBR1 120102Z 02009KT M04/M12 A3057 RMK A01 T10441117  RH  057%=      5-min Rain = 0
KBR1 120103Z 02009KT M05/M12 A3057 RMK A01 T10451118  RH  057%=      5-min Rain = 0
KBR1 120104Z 02009KT M05/M12 A3057 RMK A01 T10451118  RH  057%=      5-min Rain = 0
KBR1 120105Z 02009KT M05/M12 A3057 RMK A01 T10461118  RH  057%=      5-min Rain = 0
KBR1 120106Z 02009KT M05/M12 A3057 RMK A01 T10461118  RH  057%=      5-min Rain = 0
KBR1 120107Z 02009KT M05/M12 A3057 RMK A01 T10461118  RH  057%=      5-min Rain = 0
KBR1 120108Z 02009KT M05/M12 A3057 RMK A01 T10461117  RH  057%=      5-min Rain = 0
KBR1 120109Z 02009KT M05/M12 A3057 RMK A01 T10461118  RH  057%=      5-min Rain = 0
KBR1 120110Z 02008KT M05/M12 A3057 RMK A01 T10471118  RH  057%=      5-min Rain = 0
KBR1 120111Z 02008KT M05/M12 A3057 RMK A01 T10471118  RH  058%=      5-min Rain = 0
KBR1 120112Z 02008KT M05/M12 A3057 RMK A01 T10471118  RH  058%=      5-min Rain = 0
KBR1 120113Z 02008KT M05/M12 A3057 RMK A01 T10471118  RH  058%=      5-min Rain = 0
KBR1 120114Z 03008KT M05/M12 A3057 RMK A01 T10481118  RH  058%=      5-min Rain = 0
KBR1 120115Z 03009KT M05/M12 A3057 RMK A01 T10481119  RH  058%=      5-min Rain = 0
KBR1 120116Z 03008KT M05/M12 A3057 RMK A01 T10481118  RH  058%=      5-min Rain = 0
KBR1 120117Z 03009KT M05/M12 A3057 RMK A01 T10471118  RH  058%=      5-min Rain = 0
KBR1 120118Z 03009KT M05/M12 A3057 RMK A01 T10481118  RH  058%=      5-min Rain = 0
KBR1 120119Z 03009KT M05/M12 A3057 RMK A01 T10481118  RH  058%=      5-min Rain = 0
KBR1 120120Z 03009KT M05/M12 A3057 RMK A01 T10481118  RH  058%=      5-min Rain = 0
KBR1 120121Z 03010KT M05/M12 A3057 RMK A01 T10491118  RH  058%=      5-min Rain = 0
KBR1 120122Z 03010KT M05/M12 A3057 RMK A01 T10491118  RH  058%=      5-min Rain = 0
KBR1 120123Z 03011KT M05/M12 A3057 RMK A01 T10491118  RH  058%=      5-min Rain = 0
KBR1 120124Z 03011KT M05/M12 A3056 RMK A01 T10491118  RH  058%=      5-min Rain = 0
KBR1 120125Z 03011KT M05/M12 A3056 RMK A01 T10481117  RH  059%=      5-min Rain = 0
KBR1 120126Z 03011KT M05/M12 A3056 RMK A01 T10481117  RH  059%=      5-min Rain = 0
KBR1 120127Z 03011KT M05/M12 A3057 RMK A01 T10481117  RH  058%=      5-min Rain = 0
KBR1 120128Z 03010KT M05/M12 A3057 RMK A01 T10481117  RH  058%=      5-min Rain = 0
KBR1 120129Z 03009KT M05/M12 A3057 RMK A01 T10471116  RH  058%=      5-min Rain = 0
KBR1 120130Z 03009KT M05/M12 A3057 RMK A01 T10471116  RH  058%=      5-min Rain = 0
KBR1 120131Z 02010KT M05/M12 A3057 RMK A01 T10481117  RH  058%=      5-min Rain = 0
KBR1 120132Z 03010KT M05/M12 A3057 RMK A01 T10481116  RH  059%=      5-min Rain = 0
KBR1 120133Z 03010KT M05/M12 A3057 RMK A01 T10481116  RH  059%=      5-min Rain = 0
KBR1 120134Z 03010KT M05/M12 A3057 RMK A01 T10471116  RH  059%=      5-min Rain = 0
KBR1 120135Z 03010KT M05/M12 A3057 RMK A01 T10481116  RH  059%=      5-min Rain = 0
KBR1 120136Z 03010KT M05/M12 A3057 RMK A01 T10481116  RH  059%=      5-min Rain = 0
KBR1 120137Z 03009KT M05/M12 A3057 RMK A01 T10481117  RH  059%=      5-min Rain = 0
KBR1 120138Z 03008KT M05/M12 A3057 RMK A01 T10491117  RH  059%=      5-min Rain = 0
KBR1 120139Z 03009KT M05/M12 A3057 RMK A01 T10501117  RH  059%=      5-min Rain = 0
KBR1 120140Z 03009KT M05/M12 A3057 RMK A01 T10501117  RH  059%=      5-min Rain = 0
KBR1 120141Z 03009KT M05/M12 A3057 RMK A01 T10501117  RH  060%=      5-min Rain = 0
KBR1 120142Z 03008KT M05/M12 A3058 RMK A01 T10501116  RH  060%=      5-min Rain = 0
KBR1 120143Z 03008KT M05/M12 A3058 RMK A01 T10511117  RH  060%=      5-min Rain = 0
KBR1 120144Z 03007KT M05/M12 A3058 RMK A01 T10511117  RH  060%=      5-min Rain = 0
KBR1 120145Z 03008KT M05/M12 A3058 RMK A01 T10511117  RH  060%=      5-min Rain = 0
KBR1 120146Z 03007KT M05/M12 A3058 RMK A01 T10511116  RH  060%=      5-min Rain = 0
KBR1 120147Z 03008KT M05/M12 A3058 RMK A01 T10511117  RH  060%=      5-min Rain = 0
KBR1 120148Z 03008KT M05/M12 A3057 RMK A01 T10521117  RH  060%=      5-min Rain = 0
KBR1 120149Z 03008KT M05/M12 A3057 RMK A01 T10521117  RH  060%=      5-min Rain = 0
KBR1 120150Z 03007KT M05/M12 A3057 RMK A01 T10511116  RH  060%=      5-min Rain = 0
KBR1 120151Z 03007KT M05/M12 A3058 RMK A01 T10521117  RH  060%=      5-min Rain = 0
KBR1 120152Z 03008KT M05/M12 A3058 RMK A01 T10531118  RH  060%=      5-min Rain = 0
KBR1 120153Z 02007KT M05/M12 A3058 RMK A01 T10531117  RH  061%=      5-min Rain = 0
KBR1 120154Z 03008KT M05/M12 A3058 RMK A01 T10541117  RH  061%=      5-min Rain = 0
KBR1 120155Z 03008KT M05/M12 A3058 RMK A01 T10541117  RH  061%=      5-min Rain = 0
KBR1 120156Z 03008KT M05/M12 A3058 RMK A01 T10541117  RH  061%=      5-min Rain = 0
KBR1 120157Z 03008KT M05/M12 A3058 RMK A01 T10541117  RH  061%=      5-min Rain = 0
KBR1 120158Z 03008KT M05/M12 A3058 RMK A01 T10541117  RH  061%=      5-min Rain = 0
KBR1 120159Z 03008KT M06/M12 A3058 RMK A01 T10551117  RH  062%=      5-min Rain = 0
KBR1 120200Z 03007KT M06/M12 A3058 RMK A01 T10551117  RH  062%=      5-min Rain = 0
KBR1 120201Z 03007KT M06/M12 A3058 RMK A01 T10551117  RH  062%=      5-min Rain = 0
KBR1 120202Z 03007KT M06/M12 A3058 RMK A01 T10551117  RH  062%=      5-min Rain = 0
KBR1 120203Z 03007KT M06/M12 A3058 RMK A01 T10561117  RH  062%=      5-min Rain = 0
KBR1 120204Z 03007KT M06/M12 A3058 RMK A01 T10561117  RH  062%=      5-min Rain = 0
KBR1 120205Z 03007KT M06/M12 A3058 RMK A01 T10561117  RH  062%=      5-min Rain = 0
KBR1 120206Z 03007KT M06/M12 A3058 RMK A01 T10561117  RH  062%=      5-min Rain = 0
KBR1 120207Z 03007KT M06/M12 A3058 RMK A01 T10571117  RH  062%=      5-min Rain = 0
KBR1 120208Z 03007KT M06/M12 A3058 RMK A01 T10571117  RH  062%=      5-min Rain = 0
KBR1 120209Z 03007KT M06/M12 A3058 RMK A01 T10571117  RH  063%=      5-min Rain = 0
KBR1 120210Z 03007KT M06/M12 A3058 RMK A01 T10581118  RH  063%=      5-min Rain = 0
KBR1 120211Z 03008KT M06/M12 A3058 RMK A01 T10581117  RH  063%=      5-min Rain = 0
KBR1 120212Z 03007KT M06/M12 A3058 RMK A01 T10581117  RH  063%=      5-min Rain = 0
KBR1 120213Z 03008KT M06/M12 A3058 RMK A01 T10581117  RH  063%=      5-min Rain = 0
KBR1 120214Z 03008KT M06/M12 A3058 RMK A01 T10581117  RH  063%=      5-min Rain = 0
KBR1 120215Z 03007KT M06/M12 A3058 RMK A01 T10581117  RH  063%=      5-min Rain = 0
KBR1 120216Z 04007KT M06/M12 A3058 RMK A01 T10571116  RH  063%=      5-min Rain = 0
KBR1 120217Z 04007KT M06/M12 A3058 RMK A01 T10571116  RH  063%=      5-min Rain = 0
KBR1 120218Z 04007KT M06/M12 A3058 RMK A01 T10571117  RH  063%=      5-min Rain = 0
KBR1 120219Z 04006KT M06/M12 A3058 RMK A01 T10571117  RH  063%=      5-min Rain = 0
KBR1 120220Z 04007KT M06/M12 A3058 RMK A01 T10581117  RH  063%=      5-min Rain = 0
KBR1 120221Z 04006KT M06/M12 A3058 RMK A01 T10581117  RH  063%=      5-min Rain = 0
KBR1 120222Z 05006KT M06/M12 A3058 RMK A01 T10591117  RH  063%=      5-min Rain = 0
KBR1 120223Z 05006KT M06/M12 A3058 RMK A01 T10601118  RH  064%=      5-min Rain = 0
KBR1 120224Z 04006KT M06/M12 A3058 RMK A01 T10601118  RH  064%=      5-min Rain = 0
KBR1 120225Z 05006KT M06/M12 A3058 RMK A01 T10611118  RH  064%=      5-min Rain = 0
KBR1 120226Z 05006KT M06/M12 A3058 RMK A01 T10611118  RH  064%=      5-min Rain = 0
KBR1 120227Z 04007KT M06/M12 A3058 RMK A01 T10621118  RH  064%=      5-min Rain = 0
KBR1 120228Z 05007KT M06/M12 A3058 RMK A01 T10621119  RH  064%=      5-min Rain = 0
KBR1 120229Z 05006KT M06/M12 A3058 RMK A01 T10631119  RH  065%=      5-min Rain = 0
KBR1 120230Z 04007KT M06/M12 A3058 RMK A01 T10631119  RH  065%=      5-min Rain = 0
KBR1 120231Z 04006KT M06/M12 A3058 RMK A01 T10631118  RH  065%=      5-min Rain = 0
KBR1 120232Z 04007KT M06/M12 A3058 RMK A01 T10631118  RH  065%=      5-min Rain = 0
KBR1 120233Z 04007KT M06/M12 A3058 RMK A01 T10641119  RH  065%=      5-min Rain = 0
KBR1 120234Z 03008KT M07/M12 A3058 RMK A01 T10651119  RH  065%=      5-min Rain = 0
KBR1 120235Z 03008KT M07/M12 A3058 RMK A01 T10651120  RH  065%=      5-min Rain = 0
KBR1 120236Z 03008KT M07/M12 A3058 RMK A01 T10651119  RH  066%=      5-min Rain = 0
KBR1 120237Z 03009KT M07/M12 A3058 RMK A01 T10651118  RH  066%=      5-min Rain = 0
KBR1 120238Z 03009KT M07/M12 A3058 RMK A01 T10651118  RH  066%=      5-min Rain = 0
KBR1 120239Z 03009KT M06/M12 A3058 RMK A01 T10641117  RH  066%=      5-min Rain = 0
KBR1 120240Z 03008KT M06/M12 A3058 RMK A01 T10631116  RH  066%=      5-min Rain = 0
KBR1 120241Z 04008KT M06/M12 A3058 RMK A01 T10631116  RH  066%=      5-min Rain = 0
KBR1 120242Z 03008KT M06/M12 A3058 RMK A01 T10631117  RH  066%=      5-min Rain = 0
KBR1 120243Z 04008KT M06/M12 A3058 RMK A01 T10631117  RH  066%=      5-min Rain = 0
KBR1 120244Z 04009KT M06/M12 A3058 RMK A01 T10631117  RH  065%=      5-min Rain = 0
KBR1 120245Z 04009KT M06/M12 A3058 RMK A01 T10631117  RH  065%=      5-min Rain = 0
KBR1 120246Z 04009KT M06/M12 A3057 RMK A01 T10641118  RH  066%=      5-min Rain = 0
KBR1 120247Z 04009KT M07/M12 A3057 RMK A01 T10651118  RH  066%=      5-min Rain = 0
KBR1 120248Z 04009KT M07/M12 A3057 RMK A01 T10651118  RH  066%=      5-min Rain = 0
KBR1 120249Z 04008KT M07/M12 A3057 RMK A01 T10661119  RH  066%=      5-min Rain = 0
KBR1 120250Z 04008KT M07/M12 A3057 RMK A01 T10671119  RH  066%=      5-min Rain = 0
KBR1 120251Z 04008KT M07/M12 A3057 RMK A01 T10681119  RH  067%=      5-min Rain = 0
KBR1 120252Z 05007KT M07/M12 A3057 RMK A01 T10681119  RH  067%=      5-min Rain = 0
KBR1 120253Z 05007KT M07/M12 A3058 RMK A01 T10681119  RH  067%=      5-min Rain = 0
KBR1 120254Z 05007KT M07/M12 A3058 RMK A01 T10691119  RH  067%=      5-min Rain = 0
KBR1 120255Z 05007KT M07/M12 A3058 RMK A01 T10691119  RH  068%=      5-min Rain = 0
KBR1 120256Z 05007KT M07/M12 A3058 RMK A01 T10691119  RH  068%=      5-min Rain = 0
KBR1 120257Z 05007KT M07/M12 A3058 RMK A01 T10691119  RH  068%=      5-min Rain = 0
KBR1 120258Z 05007KT M07/M12 A3058 RMK A01 T10701119  RH  068%=      5-min Rain = 0
KBR1 120259Z 06007KT M07/M12 A3058 RMK A01 T10701119  RH  068%=      5-min Rain = 0
KBR1 120300Z 06007KT M07/M12 A3058 RMK A01 T10711120  RH  068%=      5-min Rain = 0
KBR1 120301Z 06007KT M07/M12 A3058 RMK A01 T10711120  RH  068%=      5-min Rain = 0
KBR1 120302Z 06007KT M07/M12 A3058 RMK A01 T10711120  RH  068%=      5-min Rain = 0
KBR1 120303Z 06007KT M07/M12 A3058 RMK A01 T10711120  RH  068%=      5-min Rain = 0
KBR1 120304Z 05007KT M07/M12 A3058 RMK A01 T10721120  RH  068%=      5-min Rain = 0
KBR1 120305Z 05007KT M07/M12 A3058 RMK A01 T10721121  RH  069%=      5-min Rain = 0
KBR1 120306Z 05007KT M07/M12 A3058 RMK A01 T10731121  RH  069%=      5-min Rain = 0
KBR1 120307Z 05007KT M07/M12 A3058 RMK A01 T10741121  RH  069%=      5-min Rain = 0
KBR1 120308Z 05007KT M07/M12 A3058 RMK A01 T10741122  RH  069%=      5-min Rain = 0
KBR1 120309Z 05007KT M08/M12 A3058 RMK A01 T10751122  RH  069%=      5-min Rain = 0
KBR1 120310Z 05007KT M08/M12 A3058 RMK A01 T10761122  RH  070%=      5-min Rain = 0
KBR1 120311Z 05006KT M08/M12 A3058 RMK A01 T10761122  RH  070%=      5-min Rain = 0
KBR1 120312Z 05006KT M08/M12 A3058 RMK A01 T10771122  RH  070%=      5-min Rain = 0
KBR1 120313Z 05006KT M08/M12 A3058 RMK A01 T10781123  RH  070%=      5-min Rain = 0
KBR1 120314Z 05006KT M08/M12 A3058 RMK A01 T10781123  RH  070%=      5-min Rain = 0
KBR1 120315Z 05007KT M08/M12 A3058 RMK A01 T10781123  RH  070%=      5-min Rain = 0
KBR1 120316Z 05007KT M08/M12 A3058 RMK A01 T10791123  RH  071%=      5-min Rain = 0
KBR1 120317Z 04007KT M08/M12 A3058 RMK A01 T10791123  RH  071%=      5-min Rain = 0
KBR1 120318Z 04007KT M08/M12 A3058 RMK A01 T10801124  RH  071%=      5-min Rain = 0
KBR1 120319Z 04007KT M08/M12 A3058 RMK A01 T10811124  RH  071%=      5-min Rain = 0
KBR1 120320Z 04007KT M08/M13 A3058 RMK A01 T10821125  RH  071%=      5-min Rain = 0
KBR1 120321Z 05007KT M08/M13 A3058 RMK A01 T10831126  RH  071%=      5-min Rain = 0
KBR1 120322Z 04007KT M08/M13 A3058 RMK A01 T10831126  RH  071%=      5-min Rain = 0
KBR1 120323Z 04007KT M08/M13 A3058 RMK A01 T10841126  RH  072%=      5-min Rain = 0
KBR1 120324Z 04007KT M09/M13 A3058 RMK A01 T10851126  RH  072%=      5-min Rain = 0
KBR1 120325Z 04007KT M09/M13 A3058 RMK A01 T10851126  RH  072%=      5-min Rain = 0
KBR1 120326Z 04007KT M09/M13 A3059 RMK A01 T10851125  RH  073%=      5-min Rain = 0
KBR1 120327Z 04007KT M09/M13 A3059 RMK A01 T10851125  RH  073%=      5-min Rain = 0
KBR1 120328Z 04007KT M09/M13 A3059 RMK A01 T10851125  RH  073%=      5-min Rain = 0
KBR1 120329Z 04007KT M09/M13 A3059 RMK A01 T10851125  RH  073%=      5-min Rain = 0
KBR1 120330Z 04007KT M09/M13 A3059 RMK A01 T10851125  RH  073%=      5-min Rain = 0
KBR1 120331Z 04007KT M09/M13 A3059 RMK A01 T10851125  RH  073%=      5-min Rain = 0
KBR1 120332Z 04007KT M09/M13 A3059 RMK A01 T10851125  RH  073%=      5-min Rain = 0
KBR1 120333Z 04007KT M09/M13 A3059 RMK A01 T10851125  RH  073%=      5-min Rain = 0
KBR1 120334Z 04007KT M09/M13 A3059 RMK A01 T10851125  RH  073%=      5-min Rain = 0
KBR1 120335Z 04007KT M09/M13 A3059 RMK A01 T10851125  RH  073%=      5-min Rain = 0
KBR1 120336Z 04006KT M09/M13 A3059 RMK A01 T10851125  RH  073%=      5-min Rain = 0
KBR1 120337Z 04006KT M09/M13 A3059 RMK A01 T10851125  RH  073%=      5-min Rain = 0
KBR1 120338Z 04006KT M09/M13 A3059 RMK A01 T10851125  RH  073%=      5-min Rain = 0
KBR1 120339Z 04006KT M09/M13 A3059 RMK A01 T10851125  RH  073%=      5-min Rain = 0
KBR1 120340Z 04006KT M09/M13 A3059 RMK A01 T10851125  RH  073%=      5-min Rain = 0
KBR1 120341Z 04006KT M09/M13 A3059 RMK A01 T10851125  RH  073%=      5-min Rain = 0
KBR1 120342Z 04006KT M09/M13 A3059 RMK A01 T10851125  RH  073%=      5-min Rain = 0
KBR1 120343Z 04006KT M09/M13 A3059 RMK A01 T10851125  RH  073%=      5-min Rain = 0
KBR1 120344Z 04006KT M09/M12 A3059 RMK A01 T10851124  RH  073%=      5-min Rain = 0
KBR1 120345Z 04005KT M08/M12 A3059 RMK A01 T10841124  RH  073%=      5-min Rain = 0
KBR1 120346Z 04005KT M08/M12 A3059 RMK A01 T10841124  RH  073%=      5-min Rain = 0
KBR1 120347Z 05005KT M09/M12 A3059 RMK A01 T10851124  RH  073%=      5-min Rain = 0
KBR1 120348Z 05005KT M09/M13 A3059 RMK A01 T10851125  RH  073%=      5-min Rain = 0
KBR1 120349Z 05005KT M09/M13 A3059 RMK A01 T10851125  RH  073%=      5-min Rain = 0
KBR1 120350Z 05005KT M09/M13 A3059 RMK A01 T10861125  RH  073%=      5-min Rain = 0
KBR1 120351Z 05005KT M09/M13 A3059 RMK A01 T10871126  RH  073%=      5-min Rain = 0
KBR1 120352Z 04005KT M09/M13 A3059 RMK A01 T10871127  RH  073%=      5-min Rain = 0
KBR1 120353Z 04005KT M09/M13 A3059 RMK A01 T10881127  RH  073%=      5-min Rain = 0
KBR1 120354Z 04005KT M09/M13 A3059 RMK A01 T10891128  RH  073%=      5-min Rain = 0
KBR1 120355Z 05005KT M09/M13 A3059 RMK A01 T10901128  RH  074%=      5-min Rain = 0
KBR1 120356Z 05005KT M09/M13 A3059 RMK A01 T10911129  RH  074%=      5-min Rain = 0
KBR1 120357Z 05005KT M09/M13 A3059 RMK A01 T10911129  RH  074%=      5-min Rain = 0
KBR1 120358Z 05005KT M09/M13 A3059 RMK A01 T10921129  RH  074%=      5-min Rain = 0
KBR1 120359Z 05004KT M09/M13 A3059 RMK A01 T10931129  RH  075%=      5-min Rain = 0
KBR1 120400Z 05004KT M09/M13 A3059 RMK A01 T10931129  RH  075%=      5-min Rain = 0
KBR1 120401Z 05004KT M09/M13 A3059 RMK A01 T10931130  RH  075%=      5-min Rain = 0
KBR1 120402Z 04004KT M09/M13 A3059 RMK A01 T10941130  RH  075%=      5-min Rain = 0
KBR1 120403Z 04004KT M09/M13 A3059 RMK A01 T10941130  RH  075%=      5-min Rain = 0
KBR1 120404Z 04004KT M09/M13 A3059 RMK A01 T10941129  RH  075%=      5-min Rain = 0
KBR1 120405Z 03004KT M09/M13 A3059 RMK A01 T10941129  RH  076%=      5-min Rain = 0
KBR1 120406Z 03005KT M09/M13 A3059 RMK A01 T10941129  RH  075%=      5-min Rain = 0
KBR1 120407Z 03006KT M09/M13 A3059 RMK A01 T10941130  RH  075%=      5-min Rain = 0
KBR1 120408Z 03006KT M09/M13 A3059 RMK A01 T10941129  RH  075%=      5-min Rain = 0
KBR1 120409Z 02006KT M09/M13 A3059 RMK A01 T10931128  RH  075%=      5-min Rain = 0
KBR1 120410Z 02006KT M09/M13 A3059 RMK A01 T10911127  RH  075%=      5-min Rain = 0
KBR1 120411Z 02006KT M09/M13 A3059 RMK A01 T10901126  RH  075%=      5-min Rain = 0
KBR1 120412Z 02006KT M09/M13 A3059 RMK A01 T10911128  RH  074%=      5-min Rain = 0
KBR1 120413Z 02006KT M09/M13 A3059 RMK A01 T10921129  RH  074%=      5-min Rain = 0
KBR1 120414Z 02006KT M09/M13 A3059 RMK A01 T10931130  RH  075%=      5-min Rain = 0
KBR1 120415Z 02005KT M09/M13 A3059 RMK A01 T10931130  RH  075%=      5-min Rain = 0
KBR1 120416Z 02005KT M10/M13 A3059 RMK A01 T10951132  RH  074%=      5-min Rain = 0
KBR1 120417Z 03005KT M10/M13 A3059 RMK A01 T10961133  RH  075%=      5-min Rain = 0
KBR1 120418Z 03005KT M10/M13 A3059 RMK A01 T10971132  RH  075%=      5-min Rain = 0
KBR1 120419Z 03005KT M10/M13 A3059 RMK A01 T10961131  RH  076%=      5-min Rain = 0
KBR1 120420Z 03005KT M10/M13 A3059 RMK A01 T10961129  RH  077%=      5-min Rain = 0
KBR1 120421Z 03005KT M10/M13 A3059 RMK A01 T10951129  RH  076%=      5-min Rain = 0
KBR1 120422Z 03004KT M10/M13 A3059 RMK A01 T10951129  RH  076%=      5-min Rain = 0
KBR1 120423Z 02003KT M10/M13 A3059 RMK A01 T10961131  RH  075%=      5-min Rain = 0
KBR1 120424Z 03004KT M10/M13 A3059 RMK A01 T10971132  RH  075%=      5-min Rain = 0
KBR1 120425Z 03005KT M10/M13 A3059 RMK A01 T10971132  RH  076%=      5-min Rain = 0
KBR1 120426Z 03004KT M10/M13 A3059 RMK A01 T10981133  RH  076%=      5-min Rain = 0
KBR1 120427Z 02003KT M10/M13 A3059 RMK A01 T10991134  RH  076%=      5-min Rain = 0
KBR1 120428Z 02003KT M10/M13 A3059 RMK A01 T10991134  RH  076%=      5-min Rain = 0
KBR1 120429Z 02004KT M10/M13 A3059 RMK A01 T11001133  RH  076%=      5-min Rain = 0
KBR1 120430Z 02004KT M10/M13 A3059 RMK A01 T11001133  RH  077%=      5-min Rain = 0
KBR1 120431Z 02004KT M10/M13 A3059 RMK A01 T11011134  RH  077%=      5-min Rain = 0
KBR1 120432Z 02004KT M10/M13 A3059 RMK A01 T11011133  RH  077%=      5-min Rain = 0
KBR1 120433Z 01004KT M10/M13 A3059 RMK A01 T11011133  RH  078%=      5-min Rain = 0
KBR1 120434Z 01004KT M10/M13 A3059 RMK A01 T11011132  RH  078%=      5-min Rain = 0
KBR1 120435Z 01004KT M10/M13 A3059 RMK A01 T10991130  RH  078%=      5-min Rain = 0
KBR1 120436Z 00004KT M10/M13 A3059 RMK A01 T10991130  RH  078%=      5-min Rain = 0
KBR1 120437Z 00004KT M10/M13 A3059 RMK A01 T10981130  RH  078%=      5-min Rain = 0
KBR1 120438Z 00005KT M10/M13 A3059 RMK A01 T10981130  RH  077%=      5-min Rain = 0
KBR1 120439Z 01005KT M10/M13 A3059 RMK A01 T10981131  RH  077%=      5-min Rain = 0
KBR1 120440Z 01005KT M10/M13 A3059 RMK A01 T10991131  RH  077%=      5-min Rain = 0
KBR1 120441Z 01005KT M10/M13 A3059 RMK A01 T10991131  RH  077%=      5-min Rain = 0
KBR1 120442Z 01005KT M10/M13 A3059 RMK A01 T10981130  RH  078%=      5-min Rain = 0
KBR1 120443Z 00005KT M10/M13 A3059 RMK A01 T10981129  RH  078%=      5-min Rain = 0
KBR1 120444Z 00005KT M10/M13 A3059 RMK A01 T10981130  RH  077%=      5-min Rain = 0
KBR1 120445Z 00005KT M10/M13 A3059 RMK A01 T10981130  RH  077%=      5-min Rain = 0
KBR1 120446Z 00005KT M10/M13 A3059 RMK A01 T10971128  RH  078%=      5-min Rain = 0
KBR1 120447Z 00005KT M10/M13 A3059 RMK A01 T10951126  RH  078%=      5-min Rain = 0
KBR1 120448Z 36005KT M10/M13 A3059 RMK A01 T10951126  RH  078%=      5-min Rain = 0
KBR1 120449Z 36005KT M09/M13 A3059 RMK A01 T10941127  RH  077%=      5-min Rain = 0
KBR1 120450Z 35005KT M10/M13 A3059 RMK A01 T10951128  RH  076%=      5-min Rain = 0
KBR1 120451Z 35005KT M10/M13 A3059 RMK A01 T10951129  RH  076%=      5-min Rain = 0
KBR1 120452Z 35005KT M10/M13 A3059 RMK A01 T10961130  RH  076%=      5-min Rain = 0
KBR1 120453Z 35005KT M10/M13 A3059 RMK A01 T10961131  RH  076%=      5-min Rain = 0
KBR1 120454Z 00005KT M10/M13 A3059 RMK A01 T10981132  RH  076%=      5-min Rain = 0
KBR1 120455Z 00005KT M10/M13 A3059 RMK A01 T10991132  RH  077%=      5-min Rain = 0
KBR1 120456Z 00006KT M10/M13 A3059 RMK A01 T10991132  RH  077%=      5-min Rain = 0
KBR1 120457Z 01006KT M10/M13 A3059 RMK A01 T11001132  RH  077%=      5-min Rain = 0
KBR1 120458Z 01006KT M10/M13 A3058 RMK A01 T11001133  RH  077%=      5-min Rain = 0
KBR1 120459Z 01006KT M10/M13 A3058 RMK A01 T11021134  RH  077%=      5-min Rain = 0
KBR1 120500Z 01005KT M10/M13 A3058 RMK A01 T11031134  RH  078%=      5-min Rain = 0
KBR1 120501Z 01004KT M10/M13 A3058 RMK A01 T11031134  RH  078%=      5-min Rain = 0
KBR1 120502Z 01005KT M10/M13 A3059 RMK A01 T11031134  RH  078%=      5-min Rain = 0
KBR1 120503Z 01004KT M10/M13 A3059 RMK A01 T11031133  RH  079%=      5-min Rain = 0
KBR1 120504Z 02004KT M10/M13 A3059 RMK A01 T11021132  RH  079%=      5-min Rain = 0
KBR1 120505Z 03003KT M10/M13 A3059 RMK A01 T11011131  RH  079%=      5-min Rain = 0
KBR1 120506Z 02003KT M10/M13 A3059 RMK A01 T11011133  RH  078%=      5-min Rain = 0
KBR1 120507Z 02003KT M10/M13 A3059 RMK A01 T11021134  RH  078%=      5-min Rain = 0
KBR1 120508Z 01003KT M10/M14 A3059 RMK A01 T11031135  RH  077%=      5-min Rain = 0
KBR1 120509Z 00003KT M10/M14 A3059 RMK A01 T11041136  RH  077%=      5-min Rain = 0
KBR1 120510Z 00003KT M10/M14 A3059 RMK A01 T11041136  RH  078%=      5-min Rain = 0
KBR1 120511Z 00004KT M10/M14 A3059 RMK A01 T11041135  RH  078%=      5-min Rain = 0
KBR1 120512Z 00004KT M10/M14 A3059 RMK A01 T11041135  RH  078%=      5-min Rain = 0
KBR1 120513Z 36004KT M10/M13 A3059 RMK A01 T11041134  RH  078%=      5-min Rain = 0
KBR1 120514Z 00004KT M10/M13 A3059 RMK A01 T11031134  RH  078%=      5-min Rain = 0
KBR1 120515Z 00004KT M10/M13 A3059 RMK A01 T11031134  RH  078%=      5-min Rain = 0
KBR1 120516Z 00004KT M10/M13 A3059 RMK A01 T11031134  RH  078%=      5-min Rain = 0
KBR1 120517Z 36005KT M10/M13 A3059 RMK A01 T11031134  RH  078%=      5-min Rain = 0
KBR1 120518Z 00004KT M10/M13 A3059 RMK A01 T11021134  RH  078%=      5-min Rain = 0
KBR1 120519Z 36004KT M10/M13 A3059 RMK A01 T11021134  RH  078%=      5-min Rain = 0
KBR1 120520Z 00005KT M10/M13 A3059 RMK A01 T11021134  RH  078%=      5-min Rain = 0
KBR1 120521Z 36005KT M10/M13 A3059 RMK A01 T11021134  RH  077%=      5-min Rain = 0
KBR1 120522Z 36005KT M10/M13 A3059 RMK A01 T11011133  RH  077%=      5-min Rain = 0
KBR1 120523Z 00005KT M10/M13 A3059 RMK A01 T11011134  RH  077%=      5-min Rain = 0
KBR1 120524Z 00004KT M10/M13 A3059 RMK A01 T11011134  RH  077%=      5-min Rain = 0
KBR1 120525Z 00004KT M10/M14 A3059 RMK A01 T11011135  RH  076%=      5-min Rain = 0
KBR1 120526Z 00004KT M10/M14 A3059 RMK A01 T11021135  RH  076%=      5-min Rain = 0
KBR1 120527Z 36004KT M10/M14 A3059 RMK A01 T11031136  RH  076%=      5-min Rain = 0
KBR1 120528Z 00004KT M10/M14 A3059 RMK A01 T11031137  RH  076%=      5-min Rain = 0
KBR1 120529Z 00004KT M10/M14 A3059 RMK A01 T11031137  RH  077%=      5-min Rain = 0
KBR1 120530Z 00004KT M10/M14 A3059 RMK A01 T11041137  RH  077%=      5-min Rain = 0
KBR1 120531Z 01004KT M10/M14 A3059 RMK A01 T11041137  RH  077%=      5-min Rain = 0
KBR1 120532Z 02004KT M10/M14 A3059 RMK A01 T11041137  RH  077%=      5-min Rain = 0
KBR1 120533Z 02004KT M10/M14 A3059 RMK A01 T11041137  RH  077%=      5-min Rain = 0
KBR1 120534Z 02004KT M10/M14 A3059 RMK A01 T11041137  RH  077%=      5-min Rain = 0
KBR1 120535Z 01005KT M10/M14 A3059 RMK A01 T11031136  RH  077%=      5-min Rain = 0
KBR1 120536Z 02005KT M10/M14 A3059 RMK A01 T11021135  RH  077%=      5-min Rain = 0
KBR1 120537Z 02005KT M10/M13 A3059 RMK A01 T11001134  RH  076%=      5-min Rain = 0
KBR1 120538Z 02005KT M10/M14 A3059 RMK A01 T10991135  RH  075%=      5-min Rain = 0
KBR1 120539Z 03005KT M10/M14 A3059 RMK A01 T10991136  RH  075%=      5-min Rain = 0
KBR1 120540Z 03005KT M10/M14 A3059 RMK A01 T11021139  RH  074%=      5-min Rain = 0
KBR1 120541Z 04005KT M10/M14 A3059 RMK A01 T11031140  RH  074%=      5-min Rain = 0
KBR1 120542Z 04006KT M10/M14 A3059 RMK A01 T11041140  RH  075%=      5-min Rain = 0
KBR1 120543Z 05006KT M10/M14 A3059 RMK A01 T11041139  RH  076%=      5-min Rain = 0
KBR1 120544Z 04006KT M10/M14 A3059 RMK A01 T11041138  RH  076%=      5-min Rain = 0
KBR1 120545Z 04005KT M10/M14 A3059 RMK A01 T11031137  RH  076%=      5-min Rain = 0
KBR1 120546Z 04005KT M10/M14 A3059 RMK A01 T11021137  RH  076%=      5-min Rain = 0
KBR1 120547Z 05005KT M10/M14 A3059 RMK A01 T11011136  RH  075%=      5-min Rain = 0
KBR1 120548Z 04005KT M10/M14 A3059 RMK A01 T10991135  RH  075%=      5-min Rain = 0
KBR1 120549Z 04005KT M10/M13 A3059 RMK A01 T10971134  RH  074%=      5-min Rain = 0
KBR1 120550Z 04005KT M10/M14 A3059 RMK A01 T10961135  RH  073%=      5-min Rain = 0
KBR1 120551Z 04005KT M10/M14 A3059 RMK A01 T10961136  RH  073%=      5-min Rain = 0
KBR1 120552Z 04005KT M10/M14 A3059 RMK A01 T10971136  RH  073%=      5-min Rain = 0
KBR1 120553Z 04004KT M10/M14 A3059 RMK A01 T10971137  RH  073%=      5-min Rain = 0
KBR1 120554Z 05004KT M10/M14 A3059 RMK A01 T10981138  RH  073%=      5-min Rain = 0
KBR1 120555Z 05004KT M10/M14 A3059 RMK A01 T10991138  RH  073%=      5-min Rain = 0
KBR1 120556Z 05004KT M10/M14 A3059 RMK A01 T10991138  RH  073%=      5-min Rain = 0
KBR1 120557Z 05003KT M10/M14 A3059 RMK A01 T10991139  RH  073%=      5-min Rain = 0
KBR1 120558Z 05003KT M10/M14 A3059 RMK A01 T11001139  RH  073%=      5-min Rain = 0
KBR1 120559Z 04002KT M10/M14 A3059 RMK A01 T11001139  RH  073%=      5-min Rain = 0

Page generated in 0.0724 seconds.